^^
B2 Weather Station Historical Data
Daily Summary for January 4, 2018 Units:  Both    English   Metric
Daily Weekly Monthly Yearly Custom
  High: Low: Average:
Temperature: 8.3 °F /  -13.2 °C -4.8 °F /  -20.4 °C 0.8 °F /  -17.3 °C
Dew Point: -0.1 °F /  -17.8 °C -9.1 °F /  -22.8 °C -4.8 °F /  -20.4 °C
Humidity: 81% 67% 77%
Wind Speed: 13.8mph /  22.2km/h - 9.3mph /  15km/h
Wind Gust: 13.8mph /  22.2km/h - -
Wind- - WNW
Pressure: 30.38 in /  1028.7 hPa 30.20 in /  1022.6 hPa -
Precipitation: 0.00 in /  0 mm    
Historical Graphs
 
 
Tabular Data for January 4, 2018
Time Temperature Dew Point Pressure Wind Wind Speed Wind Gust Humidity Rainfall Rate (Hourly) solar
00:02 1.4 °F /  -17 °C -3.9 °F /  -19.9 °C 30.20in /  1022.6hPa NW 8.1mph /  13km/h 8.1mph /  13km/h 78% 0.00in /  0mm 0.0 W/m2
00:05 1.1 °F /  -17.2 °C -4.2 °F /  -20.1 °C 30.21in /  1022.9hPa WNW 10.4mph /  16.7km/h 10.4mph /  16.7km/h 78% 0.00in /  0mm 0.0 W/m2
00:10 0.9 °F /  -17.3 °C -4.4 °F /  -20.2 °C 30.21in /  1022.9hPa WNW 10.4mph /  16.7km/h 10.4mph /  16.7km/h 78% 0.00in /  0mm 0.0 W/m2
00:15 0.8 °F /  -17.3 °C -4.5 °F /  -20.3 °C 30.20in /  1022.6hPa NW 7.0mph /  11.3km/h 7.0mph /  11.3km/h 78% 0.00in /  0mm 0.0 W/m2
00:16 0.8 °F /  -17.3 °C -4.5 °F /  -20.3 °C 30.20in /  1022.6hPa NW 9.2mph /  14.8km/h 9.2mph /  14.8km/h 78% 0.00in /  0mm 0.0 W/m2
00:21 0.5 °F /  -17.5 °C -4.7 °F /  -20.4 °C 30.21in /  1022.9hPa WNW 6.9mph /  11.1km/h 6.9mph /  11.1km/h 78% 0.00in /  0mm 0.0 W/m2
00:22 0.5 °F /  -17.5 °C -4.7 °F /  -20.4 °C 30.21in /  1022.9hPa WNW 8.1mph /  13km/h 8.1mph /  13km/h 78% 0.00in /  0mm 0.0 W/m2
00:27 0.4 °F /  -17.6 °C -4.8 °F /  -20.4 °C 30.21in /  1022.9hPa NW 8.1mph /  13km/h 8.1mph /  13km/h 78% 0.00in /  0mm 0.0 W/m2
00:28 0.3 °F /  -17.6 °C -4.9 °F /  -20.5 °C 30.21in /  1022.9hPa WNW 8.1mph /  13km/h 8.1mph /  13km/h 78% 0.00in /  0mm 0.0 W/m2
00:31 0.2 °F /  -17.7 °C -4.8 °F /  -20.4 °C 30.21in /  1022.9hPa WNW 8.1mph /  13km/h 8.1mph /  13km/h 79% 0.00in /  0mm 0.0 W/m2
00:33 0.2 °F /  -17.7 °C -4.8 °F /  -20.4 °C 30.28in /  1025.3hPa NW 5.8mph /  9.3km/h 5.8mph /  9.3km/h 79% 0.00in /  0mm 0.0 W/m2
00:34 0.2 °F /  -17.7 °C -4.8 °F /  -20.4 °C 30.21in /  1022.9hPa NW 8.1mph /  13km/h 8.1mph /  13km/h 79% 0.00in /  0mm 0.0 W/m2
00:35 0.1 °F /  -17.7 °C -4.9 °F /  -20.5 °C 30.21in /  1022.9hPa WNW 6.9mph /  11.1km/h 6.9mph /  11.1km/h 79% 0.00in /  0mm 0.0 W/m2
00:39 0.0 °F /  -17.8 °C -5.0 °F /  -20.6 °C 30.21in /  1022.9hPa WNW 7.0mph /  11.3km/h 7.0mph /  11.3km/h 79% 0.00in /  0mm 0.0 W/m2
00:44 -0.1 °F /  -17.8 °C -5.1 °F /  -20.6 °C 30.22in /  1023.2hPa WNW 8.1mph /  13km/h 8.1mph /  13km/h 79% 0.00in /  0mm 0.0 W/m2
00:46 -0.1 °F /  -17.8 °C -5.1 °F /  -20.6 °C 30.22in /  1023.2hPa WNW 8.1mph /  13km/h 8.1mph /  13km/h 79% 0.00in /  0mm 0.0 W/m2
00:47 -0.1 °F /  -17.8 °C -5.1 °F /  -20.6 °C 30.28in /  1025.3hPa West 8.1mph /  13km/h 8.1mph /  13km/h 79% 0.00in /  0mm 0.0 W/m2
00:50 -0.2 °F /  -17.9 °C -5.2 °F /  -20.7 °C 30.22in /  1023.2hPa WNW 8.1mph /  13km/h 8.1mph /  13km/h 79% 0.00in /  0mm 0.0 W/m2
00:55 -0.3 °F /  -17.9 °C -5.3 °F /  -20.7 °C 30.22in /  1023.2hPa WNW 6.9mph /  11.1km/h 6.9mph /  11.1km/h 79% 0.00in /  0mm 0.0 W/m2
00:57 -0.4 °F /  -18 °C -5.4 °F /  -20.8 °C 30.22in /  1023.2hPa WNW 8.1mph /  13km/h 8.1mph /  13km/h 79% 0.00in /  0mm 0.0 W/m2
01:02 -0.5 °F /  -18.1 °C -5.5 °F /  -20.8 °C 30.22in /  1023.2hPa WNW 5.8mph /  9.3km/h 5.8mph /  9.3km/h 79% 0.00in /  0mm 0.0 W/m2
01:03 -0.5 °F /  -18.1 °C -5.5 °F /  -20.8 °C 30.22in /  1023.2hPa WNW 6.9mph /  11.1km/h 6.9mph /  11.1km/h 79% 0.00in /  0mm 0.0 W/m2
01:05 -0.6 °F /  -18.1 °C -5.6 °F /  -20.9 °C 30.22in /  1023.2hPa WNW 8.1mph /  13km/h 8.1mph /  13km/h 79% 0.00in /  0mm 0.0 W/m2
01:09 -0.6 °F /  -18.1 °C -5.6 °F /  -20.9 °C 30.22in /  1023.2hPa WNW 8.1mph /  13km/h 8.1mph /  13km/h 79% 0.00in /  0mm 0.0 W/m2
01:12 -0.7 °F /  -18.2 °C -5.7 °F /  -20.9 °C 30.22in /  1023.2hPa WNW 6.0mph /  9.7km/h 6.0mph /  9.7km/h 79% 0.00in /  0mm 0.0 W/m2
01:13 -0.7 °F /  -18.2 °C -5.7 °F /  -20.9 °C 30.28in /  1025.3hPa WNW 5.0mph /  8km/h 5.0mph /  8km/h 79% 0.00in /  0mm 0.0 W/m2
01:16 -0.8 °F /  -18.2 °C -5.7 °F /  -20.9 °C 30.22in /  1023.2hPa WNW 8.1mph /  13km/h 8.1mph /  13km/h 79% 0.00in /  0mm 0.0 W/m2
01:17 -0.8 °F /  -18.2 °C -5.7 °F /  -20.9 °C 30.28in /  1025.3hPa NW 8.1mph /  13km/h 8.1mph /  13km/h 79% 0.00in /  0mm 0.0 W/m2
01:22 -0.9 °F /  -18.3 °C -5.8 °F /  -21 °C 30.22in /  1023.2hPa WNW 5.8mph /  9.3km/h 5.8mph /  9.3km/h 79% 0.00in /  0mm 0.0 W/m2
01:23 -0.9 °F /  -18.3 °C -5.8 °F /  -21 °C 30.22in /  1023.2hPa WNW 8.1mph /  13km/h 8.1mph /  13km/h 79% 0.00in /  0mm 0.0 W/m2
01:29 -0.9 °F /  -18.3 °C -5.8 °F /  -21 °C 30.22in /  1023.2hPa WNW 6.0mph /  9.7km/h 6.0mph /  9.7km/h 79% 0.00in /  0mm 0.0 W/m2
01:34 -0.9 °F /  -18.3 °C -5.6 °F /  -20.9 °C 30.22in /  1023.2hPa WNW 5.8mph /  9.3km/h 5.8mph /  9.3km/h 80% 0.00in /  0mm 0.0 W/m2
01:35 -0.9 °F /  -18.3 °C -5.6 °F /  -20.9 °C 30.22in /  1023.2hPa NW 4.6mph /  7.4km/h 4.6mph /  7.4km/h 80% 0.00in /  0mm 0.0 W/m2
01:38 -0.9 °F /  -18.3 °C -5.6 °F /  -20.9 °C 30.29in /  1025.6hPa WNW 8.1mph /  13km/h 8.1mph /  13km/h 80% 0.00in /  0mm 0.0 W/m2
01:40 -0.8 °F /  -18.2 °C -5.5 °F /  -20.8 °C 30.22in /  1023.2hPa NW 10.4mph /  16.7km/h 10.4mph /  16.7km/h 80% 0.00in /  0mm 0.0 W/m2
01:41 -0.8 °F /  -18.2 °C -5.5 °F /  -20.8 °C 30.22in /  1023.2hPa NW 8.1mph /  13km/h 8.1mph /  13km/h 80% 0.00in /  0mm 0.0 W/m2
01:46 -0.8 °F /  -18.2 °C -5.5 °F /  -20.8 °C 30.22in /  1023.2hPa West 6.0mph /  9.7km/h 6.0mph /  9.7km/h 80% 0.00in /  0mm 0.0 W/m2
01:51 -0.9 °F /  -18.3 °C -5.8 °F /  -21 °C 30.22in /  1023.2hPa WNW 5.8mph /  9.3km/h 5.8mph /  9.3km/h 79% 0.00in /  0mm 0.0 W/m2
01:52 -0.9 °F /  -18.3 °C -5.8 °F /  -21 °C 30.22in /  1023.2hPa NW 6.9mph /  11.1km/h 6.9mph /  11.1km/h 79% 0.00in /  0mm 0.0 W/m2
01:55 -0.9 °F /  -18.3 °C -5.6 °F /  -20.9 °C 30.22in /  1023.2hPa WNW 9.2mph /  14.8km/h 9.2mph /  14.8km/h 80% 0.00in /  0mm 0.0 W/m2
01:57 -0.9 °F /  -18.3 °C -5.8 °F /  -21 °C 30.22in /  1023.2hPa WNW 5.8mph /  9.3km/h 5.8mph /  9.3km/h 79% 0.00in /  0mm 0.0 W/m2
02:02 -0.9 °F /  -18.3 °C -5.6 °F /  -20.9 °C 30.22in /  1023.2hPa WNW 8.0mph /  12.9km/h 8.0mph /  12.9km/h 80% 0.00in /  0mm 0.0 W/m2
02:04 -0.9 °F /  -18.3 °C -5.6 °F /  -20.9 °C 30.22in /  1023.2hPa WNW 8.1mph /  13km/h 8.1mph /  13km/h 80% 0.00in /  0mm 0.0 W/m2
02:05 -0.9 °F /  -18.3 °C -5.6 °F /  -20.9 °C 30.22in /  1023.2hPa West 6.9mph /  11.1km/h 6.9mph /  11.1km/h 80% 0.00in /  0mm 0.0 W/m2
02:07 -0.9 °F /  -18.3 °C -5.6 °F /  -20.9 °C 30.22in /  1023.2hPa WNW 6.9mph /  11.1km/h 6.9mph /  11.1km/h 80% 0.00in /  0mm 0.0 W/m2
02:10 -0.9 °F /  -18.3 °C -5.8 °F /  -21 °C 30.22in /  1023.2hPa West 10.4mph /  16.7km/h 10.4mph /  16.7km/h 79% 0.00in /  0mm 0.0 W/m2
02:11 -0.9 °F /  -18.3 °C -5.8 °F /  -21 °C 30.23in /  1023.6hPa WNW 8.1mph /  13km/h 8.1mph /  13km/h 79% 0.00in /  0mm 0.0 W/m2
02:13 -0.9 °F /  -18.3 °C -5.8 °F /  -21 °C 30.29in /  1025.6hPa WNW 8.1mph /  13km/h 8.1mph /  13km/h 79% 0.00in /  0mm 0.0 W/m2
02:16 -0.9 °F /  -18.3 °C -5.8 °F /  -21 °C 30.23in /  1023.6hPa WNW 9.2mph /  14.8km/h 9.2mph /  14.8km/h 79% 0.00in /  0mm 0.0 W/m2
02:18 -1.0 °F /  -18.3 °C -5.9 °F /  -21.1 °C 30.23in /  1023.6hPa WNW 5.8mph /  9.3km/h 5.8mph /  9.3km/h 79% 0.00in /  0mm 0.0 W/m2
02:21 -1.0 °F /  -18.3 °C -5.9 °F /  -21.1 °C 30.23in /  1023.6hPa WNW 9.2mph /  14.8km/h 9.2mph /  14.8km/h 79% 0.00in /  0mm 0.0 W/m2
02:26 -1.2 °F /  -18.4 °C -6.1 °F /  -21.2 °C 30.23in /  1023.6hPa WNW 9.2mph /  14.8km/h 9.2mph /  14.8km/h 79% 0.00in /  0mm 0.0 W/m2
02:27 -1.2 °F /  -18.4 °C -6.1 °F /  -21.2 °C 30.23in /  1023.6hPa WNW 8.1mph /  13km/h 8.1mph /  13km/h 79% 0.00in /  0mm 0.0 W/m2
02:28 -1.2 °F /  -18.4 °C -6.1 °F /  -21.2 °C 30.23in /  1023.6hPa NW 8.1mph /  13km/h 8.1mph /  13km/h 79% 0.00in /  0mm 0.0 W/m2
02:32 -1.3 °F /  -18.5 °C -6.2 °F /  -21.2 °C 30.23in /  1023.6hPa WNW 10.4mph /  16.7km/h 10.4mph /  16.7km/h 79% 0.00in /  0mm 0.0 W/m2
02:36 -1.3 °F /  -18.5 °C -6.2 °F /  -21.2 °C 30.23in /  1023.6hPa WNW 11.5mph /  18.5km/h 11.5mph /  18.5km/h 79% 0.00in /  0mm 0.0 W/m2
02:40 -1.2 °F /  -18.4 °C -6.1 °F /  -21.2 °C 30.23in /  1023.6hPa WNW 9.2mph /  14.8km/h 9.2mph /  14.8km/h 79% 0.00in /  0mm 0.0 W/m2
02:41 -1.2 °F /  -18.4 °C -6.1 °F /  -21.2 °C 30.23in /  1023.6hPa NW 9.2mph /  14.8km/h 9.2mph /  14.8km/h 79% 0.00in /  0mm 0.0 W/m2
02:46 -1.3 °F /  -18.5 °C -6.2 °F /  -21.2 °C 30.23in /  1023.6hPa NW 9.2mph /  14.8km/h 9.2mph /  14.8km/h 79% 0.00in /  0mm 0.0 W/m2
02:51 -1.3 °F /  -18.5 °C -6.2 °F /  -21.2 °C 30.24in /  1023.9hPa NW 8.0mph /  12.9km/h 8.0mph /  12.9km/h 79% 0.00in /  0mm 0.0 W/m2
02:53 -1.4 °F /  -18.6 °C -6.3 °F /  -21.3 °C 30.24in /  1023.9hPa WNW 10.4mph /  16.7km/h 10.4mph /  16.7km/h 79% 0.00in /  0mm 0.0 W/m2
02:57 -1.3 °F /  -18.5 °C -6.2 °F /  -21.2 °C 30.24in /  1023.9hPa NW 10.4mph /  16.7km/h 10.4mph /  16.7km/h 79% 0.00in /  0mm 0.0 W/m2
02:59 -1.3 °F /  -18.5 °C -6.2 °F /  -21.2 °C 30.24in /  1023.9hPa WNW 11.5mph /  18.5km/h 11.5mph /  18.5km/h 79% 0.00in /  0mm 0.0 W/m2
03:04 -1.5 °F /  -18.6 °C -6.4 °F /  -21.3 °C 30.24in /  1023.9hPa WNW 9.2mph /  14.8km/h 9.2mph /  14.8km/h 79% 0.00in /  0mm 0.0 W/m2
03:09 -1.6 °F /  -18.7 °C -6.5 °F /  -21.4 °C 30.24in /  1023.9hPa WNW 11.5mph /  18.5km/h 11.5mph /  18.5km/h 79% 0.00in /  0mm 0.0 W/m2
03:10 -1.7 °F /  -18.7 °C -6.6 °F /  -21.4 °C 30.24in /  1023.9hPa West 11.5mph /  18.5km/h 11.5mph /  18.5km/h 79% 0.00in /  0mm 0.0 W/m2
03:13 -1.7 °F /  -18.7 °C -6.6 °F /  -21.4 °C 30.24in /  1023.9hPa WNW 10.4mph /  16.7km/h 10.4mph /  16.7km/h 79% 0.00in /  0mm 0.0 W/m2
03:15 -1.7 °F /  -18.7 °C -6.6 °F /  -21.4 °C 30.24in /  1023.9hPa WNW 9.2mph /  14.8km/h 9.2mph /  14.8km/h 79% 0.00in /  0mm 0.0 W/m2
03:20 -1.7 °F /  -18.7 °C -6.6 °F /  -21.4 °C 30.24in /  1023.9hPa NW 9.0mph /  14.5km/h 9.0mph /  14.5km/h 79% 0.00in /  0mm 0.0 W/m2
03:21 -1.7 °F /  -18.7 °C -6.6 °F /  -21.4 °C 30.24in /  1023.9hPa WNW 9.2mph /  14.8km/h 9.2mph /  14.8km/h 79% 0.00in /  0mm 0.0 W/m2
03:26 -1.6 °F /  -18.7 °C -6.3 °F /  -21.3 °C 30.24in /  1023.9hPa WNW 9.0mph /  14.5km/h 9.0mph /  14.5km/h 80% 0.00in /  0mm 0.0 W/m2
03:29 -1.6 °F /  -18.7 °C -6.3 °F /  -21.3 °C 30.24in /  1023.9hPa WNW 7.0mph /  11.3km/h 7.0mph /  11.3km/h 80% 0.00in /  0mm 0.0 W/m2
03:32 -1.6 °F /  -18.7 °C -6.5 °F /  -21.4 °C 30.24in /  1023.9hPa WNW 11.5mph /  18.5km/h 11.5mph /  18.5km/h 79% 0.00in /  0mm 0.0 W/m2
03:35 -1.7 °F /  -18.7 °C -6.6 °F /  -21.4 °C 30.23in /  1023.6hPa NW 10.4mph /  16.7km/h 10.4mph /  16.7km/h 79% 0.00in /  0mm 0.0 W/m2
03:37 -1.8 °F /  -18.8 °C -6.7 °F /  -21.5 °C 30.23in /  1023.6hPa WNW 11.5mph /  18.5km/h 11.5mph /  18.5km/h 79% 0.00in /  0mm 0.0 W/m2
03:42 -1.8 °F /  -18.8 °C -6.7 °F /  -21.5 °C 30.24in /  1023.9hPa WNW 5.8mph /  9.3km/h 5.8mph /  9.3km/h 79% 0.00in /  0mm 0.0 W/m2
03:47 -1.8 °F /  -18.8 °C -6.7 °F /  -21.5 °C 30.24in /  1023.9hPa WNW 9.2mph /  14.8km/h 9.2mph /  14.8km/h 79% 0.00in /  0mm 0.0 W/m2
03:48 -1.8 °F /  -18.8 °C -6.7 °F /  -21.5 °C 30.24in /  1023.9hPa WNW 10.4mph /  16.7km/h 10.4mph /  16.7km/h 79% 0.00in /  0mm 0.0 W/m2
03:51 -1.7 °F /  -18.7 °C -6.6 °F /  -21.4 °C 30.24in /  1023.9hPa WNW 6.9mph /  11.1km/h 6.9mph /  11.1km/h 79% 0.00in /  0mm 0.0 W/m2
03:55 -1.8 °F /  -18.8 °C -6.7 °F /  -21.5 °C 30.24in /  1023.9hPa WNW 11.0mph /  17.7km/h 11.0mph /  17.7km/h 79% 0.00in /  0mm 0.0 W/m2
03:56 -1.9 °F /  -18.8 °C -6.8 °F /  -21.6 °C 30.30in /  1026hPa WNW 11.5mph /  18.5km/h 11.5mph /  18.5km/h 79% 0.00in /  0mm 0.0 W/m2
03:58 -1.9 °F /  -18.8 °C -6.8 °F /  -21.6 °C 30.24in /  1023.9hPa West 10.4mph /  16.7km/h 10.4mph /  16.7km/h 79% 0.00in /  0mm 0.0 W/m2
04:02 -2.0 °F /  -18.9 °C -6.9 °F /  -21.6 °C 30.24in /  1023.9hPa West 11.5mph /  18.5km/h 11.5mph /  18.5km/h 79% 0.00in /  0mm 0.0 W/m2
04:07 -2.3 °F /  -19.1 °C -7.2 °F /  -21.8 °C 30.24in /  1023.9hPa WNW 10.4mph /  16.7km/h 10.4mph /  16.7km/h 79% 0.00in /  0mm 0.0 W/m2
04:09 -2.4 °F /  -19.1 °C -7.3 °F /  -21.8 °C 30.24in /  1023.9hPa WNW 9.2mph /  14.8km/h 9.2mph /  14.8km/h 79% 0.00in /  0mm 0.0 W/m2
04:14 -2.5 °F /  -19.2 °C -7.4 °F /  -21.9 °C 30.23in /  1023.6hPa NW 10.4mph /  16.7km/h 10.4mph /  16.7km/h 79% 0.00in /  0mm 0.0 W/m2
04:16 -2.5 °F /  -19.2 °C -7.4 °F /  -21.9 °C 30.23in /  1023.6hPa NW 10.4mph /  16.7km/h 10.4mph /  16.7km/h 79% 0.00in /  0mm 0.0 W/m2
04:19 -2.4 °F /  -19.1 °C -7.1 °F /  -21.7 °C 30.24in /  1023.9hPa NW 10.4mph /  16.7km/h 10.4mph /  16.7km/h 80% 0.00in /  0mm 0.0 W/m2
04:24 -2.4 °F /  -19.1 °C -7.1 °F /  -21.7 °C 30.24in /  1023.9hPa WNW 9.2mph /  14.8km/h 9.2mph /  14.8km/h 80% 0.00in /  0mm 0.0 W/m2
04:25 -2.4 °F /  -19.1 °C -7.1 °F /  -21.7 °C 30.24in /  1023.9hPa WNW 9.2mph /  14.8km/h 9.2mph /  14.8km/h 80% 0.00in /  0mm 0.0 W/m2
04:28 -2.4 °F /  -19.1 °C -7.1 °F /  -21.7 °C 30.24in /  1023.9hPa WNW 9.2mph /  14.8km/h 9.2mph /  14.8km/h 80% 0.00in /  0mm 0.0 W/m2
04:32 -2.3 °F /  -19.1 °C -7.0 °F /  -21.7 °C 30.24in /  1023.9hPa West 9.2mph /  14.8km/h 9.2mph /  14.8km/h 80% 0.00in /  0mm 0.0 W/m2
04:36 -2.3 °F /  -19.1 °C -7.0 °F /  -21.7 °C 30.24in /  1023.9hPa WNW 10.4mph /  16.7km/h 10.4mph /  16.7km/h 80% 0.00in /  0mm 0.0 W/m2
04:41 -2.3 °F /  -19.1 °C -7.0 °F /  -21.7 °C 30.24in /  1023.9hPa WNW 9.2mph /  14.8km/h 9.2mph /  14.8km/h 80% 0.00in /  0mm 0.0 W/m2
04:46 -2.3 °F /  -19.1 °C -7.2 °F /  -21.8 °C 30.24in /  1023.9hPa WNW 9.2mph /  14.8km/h 9.2mph /  14.8km/h 79% 0.00in /  0mm 0.0 W/m2
04:47 -2.4 °F /  -19.1 °C -7.1 °F /  -21.7 °C 30.24in /  1023.9hPa NW 8.1mph /  13km/h 8.1mph /  13km/h 80% 0.00in /  0mm 0.0 W/m2
04:49 -2.4 °F /  -19.1 °C -7.1 °F /  -21.7 °C 30.24in /  1023.9hPa NW 10.4mph /  16.7km/h 10.4mph /  16.7km/h 80% 0.00in /  0mm 0.0 W/m2
04:52 -2.3 °F /  -19.1 °C -7.0 °F /  -21.7 °C 30.24in /  1023.9hPa WNW 11.5mph /  18.5km/h 11.5mph /  18.5km/h 80% 0.00in /  0mm 0.0 W/m2
04:57 -2.3 °F /  -19.1 °C -7.0 °F /  -21.7 °C 30.24in /  1023.9hPa NW 9.2mph /  14.8km/h 9.2mph /  14.8km/h 80% 0.00in /  0mm 0.0 W/m2
04:58 -2.3 °F /  -19.1 °C -7.0 °F /  -21.7 °C 30.24in /  1023.9hPa NW 11.5mph /  18.5km/h 11.5mph /  18.5km/h 80% 0.00in /  0mm 0.0 W/m2
04:59 -2.3 °F /  -19.1 °C -7.0 °F /  -21.7 °C 30.24in /  1023.9hPa NW 11.5mph /  18.5km/h 11.5mph /  18.5km/h 80% 0.00in /  0mm 0.0 W/m2
05:04 -2.3 °F /  -19.1 °C -7.0 °F /  -21.7 °C 30.24in /  1023.9hPa NW 11.5mph /  18.5km/h 11.5mph /  18.5km/h 80% 0.00in /  0mm 0.0 W/m2
05:06 -2.4 °F /  -19.1 °C -7.1 °F /  -21.7 °C 30.24in /  1023.9hPa NW 10.4mph /  16.7km/h 10.4mph /  16.7km/h 80% 0.00in /  0mm 0.0 W/m2
05:11 -2.4 °F /  -19.1 °C -7.1 °F /  -21.7 °C 30.24in /  1023.9hPa NW 10.4mph /  16.7km/h 10.4mph /  16.7km/h 80% 0.00in /  0mm 0.0 W/m2
05:12 -2.4 °F /  -19.1 °C -7.1 °F /  -21.7 °C 30.24in /  1023.9hPa NW 6.9mph /  11.1km/h 6.9mph /  11.1km/h 80% 0.00in /  0mm 0.0 W/m2
05:17 -2.3 °F /  -19.1 °C -7.0 °F /  -21.7 °C 30.24in /  1023.9hPa WNW 10.0mph /  16.1km/h 10.0mph /  16.1km/h 80% 0.00in /  0mm 0.0 W/m2
05:19 -2.3 °F /  -19.1 °C -7.0 °F /  -21.7 °C 30.25in /  1024.3hPa WNW 8.1mph /  13km/h 8.1mph /  13km/h 80% 0.00in /  0mm 0.0 W/m2
05:24 -2.6 °F /  -19.2 °C -7.5 °F /  -21.9 °C 30.25in /  1024.3hPa WNW 8.0mph /  12.9km/h 8.0mph /  12.9km/h 79% 0.00in /  0mm 0.0 W/m2
05:26 -2.8 °F /  -19.3 °C -7.7 °F /  -22.1 °C 30.25in /  1024.3hPa WNW 9.2mph /  14.8km/h 9.2mph /  14.8km/h 79% 0.00in /  0mm 0.0 W/m2
05:31 -3.2 °F /  -19.6 °C -8.1 °F /  -22.3 °C 30.25in /  1024.3hPa WNW 6.9mph /  11.1km/h 6.9mph /  11.1km/h 79% 0.00in /  0mm 0.0 W/m2
05:33 -3.3 °F /  -19.6 °C -8.2 °F /  -22.3 °C 30.25in /  1024.3hPa NW 9.2mph /  14.8km/h 9.2mph /  14.8km/h 79% 0.00in /  0mm 0.0 W/m2
05:36 -3.4 °F /  -19.7 °C -8.0 °F /  -22.2 °C 30.25in /  1024.3hPa West 8.1mph /  13km/h 8.1mph /  13km/h 80% 0.00in /  0mm 0.0 W/m2
05:43 -3.5 °F /  -19.7 °C -8.1 °F /  -22.3 °C 30.25in /  1024.3hPa NW 5.8mph /  9.3km/h 5.8mph /  9.3km/h 80% 0.00in /  0mm 0.0 W/m2
05:47 -3.6 °F /  -19.8 °C -8.2 °F /  -22.3 °C 30.25in /  1024.3hPa WNW 5.8mph /  9.3km/h 5.8mph /  9.3km/h 80% 0.00in /  0mm 0.0 W/m2
05:49 -3.5 °F /  -19.7 °C -8.1 °F /  -22.3 °C 30.25in /  1024.3hPa NW 6.9mph /  11.1km/h 6.9mph /  11.1km/h 80% 0.00in /  0mm 0.0 W/m2
05:54 -3.4 °F /  -19.7 °C -7.8 °F /  -22.1 °C 30.25in /  1024.3hPa WNW 6.9mph /  11.1km/h 6.9mph /  11.1km/h 81% 0.00in /  0mm 0.0 W/m2
05:59 -3.2 °F /  -19.6 °C -7.6 °F /  -22 °C 30.25in /  1024.3hPa WNW 10.4mph /  16.7km/h 10.4mph /  16.7km/h 81% 0.00in /  0mm 0.0 W/m2
06:02 -3.2 °F /  -19.6 °C -7.8 °F /  -22.1 °C 30.25in /  1024.3hPa West 8.1mph /  13km/h 8.1mph /  13km/h 80% 0.00in /  0mm 0.0 W/m2
06:07 -3.5 °F /  -19.7 °C -8.1 °F /  -22.3 °C 30.26in /  1024.6hPa WNW 9.2mph /  14.8km/h 9.2mph /  14.8km/h 80% 0.00in /  0mm 0.0 W/m2
06:09 -3.6 °F /  -19.8 °C -8.2 °F /  -22.3 °C 30.26in /  1024.6hPa WNW 8.1mph /  13km/h 8.1mph /  13km/h 80% 0.00in /  0mm 0.0 W/m2
06:14 -3.8 °F /  -19.9 °C -8.4 °F /  -22.4 °C 30.26in /  1024.6hPa NW 9.2mph /  14.8km/h 9.2mph /  14.8km/h 80% 0.00in /  0mm 0.0 W/m2
06:15 -3.9 °F /  -19.9 °C -8.5 °F /  -22.5 °C 30.26in /  1024.6hPa WNW 9.2mph /  14.8km/h 9.2mph /  14.8km/h 80% 0.00in /  0mm 0.0 W/m2
06:16 -3.9 °F /  -19.9 °C -8.5 °F /  -22.5 °C 30.26in /  1024.6hPa West 8.1mph /  13km/h 8.1mph /  13km/h 80% 0.00in /  0mm 0.0 W/m2
06:21 -4.1 °F /  -20.1 °C -8.7 °F /  -22.6 °C 30.27in /  1024.9hPa WNW 9.2mph /  14.8km/h 9.2mph /  14.8km/h 80% 0.00in /  0mm 0.0 W/m2
06:26 -4.1 °F /  -20.1 °C -8.5 °F /  -22.5 °C 30.27in /  1024.9hPa West 8.1mph /  13km/h 8.1mph /  13km/h 81% 0.00in /  0mm 0.0 W/m2
06:31 -4.1 °F /  -20.1 °C -8.5 °F /  -22.5 °C 30.27in /  1024.9hPa WNW 10.4mph /  16.7km/h 10.4mph /  16.7km/h 81% 0.00in /  0mm 0.0 W/m2
06:35 -4.1 °F /  -20.1 °C -8.5 °F /  -22.5 °C 30.27in /  1024.9hPa West 10.4mph /  16.7km/h 10.4mph /  16.7km/h 81% 0.00in /  0mm 0.0 W/m2
06:37 -4.1 °F /  -20.1 °C -8.5 °F /  -22.5 °C 30.27in /  1024.9hPa NW 8.0mph /  12.9km/h 8.0mph /  12.9km/h 81% 0.00in /  0mm 0.0 W/m2
06:38 -4.1 °F /  -20.1 °C -8.5 °F /  -22.5 °C 30.27in /  1024.9hPa NW 10.4mph /  16.7km/h 10.4mph /  16.7km/h 81% 0.00in /  0mm 0.0 W/m2
06:42 -4.1 °F /  -20.1 °C -8.5 °F /  -22.5 °C 30.27in /  1024.9hPa WNW 9.2mph /  14.8km/h 9.2mph /  14.8km/h 81% 0.00in /  0mm 0.0 W/m2
06:43 -4.1 °F /  -20.1 °C -8.5 °F /  -22.5 °C 30.27in /  1024.9hPa NW 10.4mph /  16.7km/h 10.4mph /  16.7km/h 81% 0.00in /  0mm 0.0 W/m2
06:48 -4.1 °F /  -20.1 °C -8.5 °F /  -22.5 °C 30.34in /  1027.3hPa WNW 10.4mph /  16.7km/h 10.4mph /  16.7km/h 81% 0.00in /  0mm 0.0 W/m2
06:50 -4.1 °F /  -20.1 °C -8.5 °F /  -22.5 °C 30.27in /  1024.9hPa WNW 11.5mph /  18.5km/h 11.5mph /  18.5km/h 81% 0.00in /  0mm 0.0 W/m2
06:53 -4.1 °F /  -20.1 °C -8.5 °F /  -22.5 °C 30.33in /  1027hPa WNW 9.2mph /  14.8km/h 9.2mph /  14.8km/h 81% 0.00in /  0mm 0.0 W/m2
06:54 -4.1 °F /  -20.1 °C -8.5 °F /  -22.5 °C 30.27in /  1024.9hPa WNW 11.5mph /  18.5km/h 11.5mph /  18.5km/h 81% 0.00in /  0mm 0.0 W/m2
06:59 -4.1 °F /  -20.1 °C -8.5 °F /  -22.5 °C 30.27in /  1024.9hPa WNW 11.5mph /  18.5km/h 11.5mph /  18.5km/h 81% 0.00in /  0mm 0.0 W/m2
07:03 -4.2 °F /  -20.1 °C -8.6 °F /  -22.6 °C 30.27in /  1024.9hPa WNW 9.2mph /  14.8km/h 9.2mph /  14.8km/h 81% 0.00in /  0mm 0.0 W/m2
07:08 -4.3 °F /  -20.2 °C -8.7 °F /  -22.6 °C 30.28in /  1025.3hPa West 9.0mph /  14.5km/h 9.0mph /  14.5km/h 81% 0.00in /  0mm 0.0 W/m2
07:09 -4.4 °F /  -20.2 °C -8.8 °F /  -22.7 °C 30.28in /  1025.3hPa WNW 10.4mph /  16.7km/h 10.4mph /  16.7km/h 81% 0.00in /  0mm 0.0 W/m2
07:10 -4.4 °F /  -20.2 °C -8.8 °F /  -22.7 °C 30.27in /  1024.9hPa WNW 11.5mph /  18.5km/h 11.5mph /  18.5km/h 81% 0.00in /  0mm 0.0 W/m2
07:12 -4.4 °F /  -20.2 °C -8.8 °F /  -22.7 °C 30.27in /  1024.9hPa WNW 11.5mph /  18.5km/h 11.5mph /  18.5km/h 81% 0.00in /  0mm 0.0 W/m2
07:16 -4.5 °F /  -20.3 °C -8.8 °F /  -22.7 °C 30.28in /  1025.3hPa WNW 8.0mph /  12.9km/h 8.0mph /  12.9km/h 81% 0.00in /  0mm 5.0 W/m2
07:21 -4.7 °F /  -20.4 °C -9.0 °F /  -22.8 °C 30.28in /  1025.3hPa WNW 8.1mph /  13km/h 8.1mph /  13km/h 81% 0.00in /  0mm 7.0 W/m2
07:22 -4.7 °F /  -20.4 °C -9.0 °F /  -22.8 °C 30.28in /  1025.3hPa WNW 8.1mph /  13km/h 8.1mph /  13km/h 81% 0.00in /  0mm 7.0 W/m2
07:27 -4.8 °F /  -20.4 °C -9.1 °F /  -22.8 °C 30.28in /  1025.3hPa NW 9.2mph /  14.8km/h 9.2mph /  14.8km/h 81% 0.00in /  0mm 11.0 W/m2
07:28 -4.8 °F /  -20.4 °C -9.1 °F /  -22.8 °C 30.28in /  1025.3hPa WNW 9.2mph /  14.8km/h 9.2mph /  14.8km/h 81% 0.00in /  0mm 11.0 W/m2
07:33 -4.8 °F /  -20.4 °C -9.1 °F /  -22.8 °C 30.28in /  1025.3hPa WNW 8.1mph /  13km/h 8.1mph /  13km/h 81% 0.00in /  0mm 12.0 W/m2
07:34 -4.8 °F /  -20.4 °C -9.1 °F /  -22.8 °C 30.28in /  1025.3hPa WNW 8.1mph /  13km/h 8.1mph /  13km/h 81% 0.00in /  0mm 14.0 W/m2
07:39 -4.8 °F /  -20.4 °C -9.1 °F /  -22.8 °C 30.28in /  1025.3hPa WNW 9.2mph /  14.8km/h 9.2mph /  14.8km/h 81% 0.00in /  0mm 19.0 W/m2
07:40 -4.8 °F /  -20.4 °C -9.1 °F /  -22.8 °C 30.28in /  1025.3hPa NW 9.2mph /  14.8km/h 9.2mph /  14.8km/h 81% 0.00in /  0mm 23.0 W/m2
07:41 -4.7 °F /  -20.4 °C -9.0 °F /  -22.8 °C 30.34in /  1027.3hPa WNW 9.2mph /  14.8km/h 9.2mph /  14.8km/h 81% 0.00in /  0mm 25.0 W/m2
07:42 -4.8 °F /  -20.4 °C -9.1 °F /  -22.8 °C 30.28in /  1025.3hPa WNW 6.9mph /  11.1km/h 6.9mph /  11.1km/h 81% 0.00in /  0mm 26.0 W/m2
07:47 -4.7 °F /  -20.4 °C -9.0 °F /  -22.8 °C 30.28in /  1025.3hPa WNW 5.8mph /  9.3km/h 5.8mph /  9.3km/h 81% 0.00in /  0mm 40.0 W/m2
07:52 -4.6 °F /  -20.3 °C -8.9 °F /  -22.7 °C 30.28in /  1025.3hPa WNW 5.0mph /  8km/h 5.0mph /  8km/h 81% 0.00in /  0mm 46.0 W/m2
07:57 -4.3 °F /  -20.2 °C -8.7 °F /  -22.6 °C 30.28in /  1025.3hPa WNW 10.4mph /  16.7km/h 10.4mph /  16.7km/h 81% 0.00in /  0mm 65.0 W/m2
08:02 -4.2 °F /  -20.1 °C -8.6 °F /  -22.6 °C 30.28in /  1025.3hPa WNW 10.0mph /  16.1km/h 10.0mph /  16.1km/h 81% 0.00in /  0mm 77.0 W/m2
08:07 -4.2 °F /  -20.1 °C -8.8 °F /  -22.7 °C 30.29in /  1025.6hPa WNW 10.4mph /  16.7km/h 10.4mph /  16.7km/h 80% 0.00in /  0mm 93.0 W/m2
08:13 -4.2 °F /  -20.1 °C -8.8 °F /  -22.7 °C 30.29in /  1025.6hPa NW 8.1mph /  13km/h 8.1mph /  13km/h 80% 0.00in /  0mm 107.0 W/m2
08:15 -4.2 °F /  -20.1 °C -8.8 °F /  -22.7 °C 30.35in /  1027.7hPa WNW 8.1mph /  13km/h 8.1mph /  13km/h 80% 0.00in /  0mm 114.0 W/m2
08:19 -4.2 °F /  -20.1 °C -8.8 °F /  -22.7 °C 30.29in /  1025.6hPa NW 9.2mph /  14.8km/h 9.2mph /  14.8km/h 80% 0.00in /  0mm 125.0 W/m2
08:24 -4.1 °F /  -20.1 °C -8.7 °F /  -22.6 °C 30.29in /  1025.6hPa NW 9.2mph /  14.8km/h 9.2mph /  14.8km/h 80% 0.00in /  0mm 139.0 W/m2
08:25 -4.0 °F /  -20 °C -8.6 °F /  -22.6 °C 30.29in /  1025.6hPa NW 10.4mph /  16.7km/h 10.4mph /  16.7km/h 80% 0.00in /  0mm 142.0 W/m2
08:26 -3.9 °F /  -19.9 °C -8.5 °F /  -22.5 °C 30.29in /  1025.6hPa NW 8.1mph /  13km/h 8.1mph /  13km/h 80% 0.00in /  0mm 146.0 W/m2
08:31 -3.8 °F /  -19.9 °C -8.4 °F /  -22.4 °C 30.29in /  1025.6hPa NW 9.2mph /  14.8km/h 9.2mph /  14.8km/h 80% 0.00in /  0mm 162.0 W/m2
08:34 -3.6 °F /  -19.8 °C -8.2 °F /  -22.3 °C 30.29in /  1025.6hPa NW 11.5mph /  18.5km/h 11.5mph /  18.5km/h 80% 0.00in /  0mm 174.0 W/m2
08:39 -3.6 °F /  -19.8 °C -8.2 °F /  -22.3 °C 30.29in /  1025.6hPa NW 11.5mph /  18.5km/h 11.5mph /  18.5km/h 80% 0.00in /  0mm 190.0 W/m2
08:44 -3.5 °F /  -19.7 °C -8.1 °F /  -22.3 °C 30.29in /  1025.6hPa NW 11.5mph /  18.5km/h 11.5mph /  18.5km/h 80% 0.00in /  0mm 206.0 W/m2
08:46 -3.5 °F /  -19.7 °C -8.1 °F /  -22.3 °C 30.29in /  1025.6hPa NW 11.5mph /  18.5km/h 11.5mph /  18.5km/h 80% 0.00in /  0mm 211.0 W/m2
08:48 -3.3 °F /  -19.6 °C -7.9 °F /  -22.2 °C 30.29in /  1025.6hPa WNW 10.4mph /  16.7km/h 10.4mph /  16.7km/h 80% 0.00in /  0mm 216.0 W/m2
08:51 -3.1 °F /  -19.5 °C -7.7 °F /  -22.1 °C 30.30in /  1026hPa WNW 8.1mph /  13km/h 8.1mph /  13km/h 80% 0.00in /  0mm 225.0 W/m2
08:52 -3.1 °F /  -19.5 °C -7.7 °F /  -22.1 °C 30.30in /  1026hPa NW 9.2mph /  14.8km/h 9.2mph /  14.8km/h 80% 0.00in /  0mm 225.0 W/m2
08:54 -3.0 °F /  -19.4 °C -7.6 °F /  -22 °C 30.30in /  1026hPa WNW 8.1mph /  13km/h 8.1mph /  13km/h 80% 0.00in /  0mm 234.0 W/m2
08:57 -3.0 °F /  -19.4 °C -7.9 °F /  -22.2 °C 30.30in /  1026hPa NW 6.9mph /  11.1km/h 6.9mph /  11.1km/h 79% 0.00in /  0mm 243.0 W/m2
09:02 -2.8 °F /  -19.3 °C -7.7 °F /  -22.1 °C 30.30in /  1026hPa WNW 8.1mph /  13km/h 8.1mph /  13km/h 79% 0.00in /  0mm 258.0 W/m2
09:07 -2.8 °F /  -19.3 °C -7.7 °F /  -22.1 °C 30.30in /  1026hPa WNW 10.4mph /  16.7km/h 10.4mph /  16.7km/h 79% 0.00in /  0mm 271.0 W/m2
09:12 -2.6 °F /  -19.2 °C -7.5 °F /  -21.9 °C 30.30in /  1026hPa NW 6.9mph /  11.1km/h 6.9mph /  11.1km/h 79% 0.00in /  0mm 281.0 W/m2
09:17 -2.5 °F /  -19.2 °C -7.4 °F /  -21.9 °C 30.30in /  1026hPa NW 10.4mph /  16.7km/h 10.4mph /  16.7km/h 79% 0.00in /  0mm 292.0 W/m2
09:18 -2.5 °F /  -19.2 °C -7.4 °F /  -21.9 °C 30.30in /  1026hPa NW 8.1mph /  13km/h 8.1mph /  13km/h 79% 0.00in /  0mm 297.0 W/m2
09:23 -2.2 °F /  -19 °C -7.1 °F /  -21.7 °C 30.31in /  1026.3hPa WNW 11.0mph /  17.7km/h 11.0mph /  17.7km/h 79% 0.00in /  0mm 306.0 W/m2
09:25 -2.2 °F /  -19 °C -7.1 °F /  -21.7 °C 30.37in /  1028.3hPa NW 12.0mph /  19.3km/h 12.0mph /  19.3km/h 79% 0.00in /  0mm 309.0 W/m2
09:28 -2.1 °F /  -18.9 °C -7.0 °F /  -21.7 °C 30.31in /  1026.3hPa NW 11.5mph /  18.5km/h 11.5mph /  18.5km/h 79% 0.00in /  0mm 315.0 W/m2
09:29 -2.1 °F /  -18.9 °C -7.0 °F /  -21.7 °C 30.31in /  1026.3hPa WNW 11.0mph /  17.7km/h 11.0mph /  17.7km/h 79% 0.00in /  0mm 316.0 W/m2
09:30 -2.0 °F /  -18.9 °C -6.9 °F /  -21.6 °C 30.31in /  1026.3hPa WNW 11.5mph /  18.5km/h 11.5mph /  18.5km/h 79% 0.00in /  0mm 318.0 W/m2
09:35 -1.7 °F /  -18.7 °C -6.9 °F /  -21.6 °C 30.31in /  1026.3hPa WNW 12.0mph /  19.3km/h 12.0mph /  19.3km/h 78% 0.00in /  0mm 329.0 W/m2
09:40 -1.4 °F /  -18.6 °C -6.6 °F /  -21.4 °C 30.31in /  1026.3hPa NW 10.4mph /  16.7km/h 10.4mph /  16.7km/h 78% 0.00in /  0mm 338.0 W/m2
09:44 -1.2 °F /  -18.4 °C -6.4 °F /  -21.3 °C 30.38in /  1028.7hPa WNW 10.4mph /  16.7km/h 10.4mph /  16.7km/h 78% 0.00in /  0mm 345.0 W/m2
09:45 -1.1 °F /  -18.4 °C -6.3 °F /  -21.3 °C 30.31in /  1026.3hPa West 11.5mph /  18.5km/h 11.5mph /  18.5km/h 78% 0.00in /  0mm 345.0 W/m2
09:49 -0.9 °F /  -18.3 °C -6.1 °F /  -21.2 °C 30.32in /  1026.6hPa WNW 11.5mph /  18.5km/h 11.5mph /  18.5km/h 78% 0.00in /  0mm 352.0 W/m2
09:50 -0.9 °F /  -18.3 °C -6.1 °F /  -21.2 °C 30.38in /  1028.7hPa WNW 8.1mph /  13km/h 8.1mph /  13km/h 78% 0.00in /  0mm 353.0 W/m2
09:54 -0.7 °F /  -18.2 °C -5.9 °F /  -21.1 °C 30.32in /  1026.6hPa WNW 9.2mph /  14.8km/h 9.2mph /  14.8km/h 78% 0.00in /  0mm 359.0 W/m2
09:59 -0.5 °F /  -18.1 °C -6.0 °F /  -21.1 °C 30.32in /  1026.6hPa WNW 11.5mph /  18.5km/h 11.5mph /  18.5km/h 77% 0.00in /  0mm 367.0 W/m2
10:04 -0.3 °F /  -17.9 °C -5.8 °F /  -21 °C 30.32in /  1026.6hPa NW 11.5mph /  18.5km/h 11.5mph /  18.5km/h 77% 0.00in /  0mm 376.0 W/m2
10:09 0.0 °F /  -17.8 °C -5.5 °F /  -20.8 °C 30.32in /  1026.6hPa WNW 10.4mph /  16.7km/h 10.4mph /  16.7km/h 77% 0.00in /  0mm 383.0 W/m2
10:10 0.0 °F /  -17.8 °C -5.5 °F /  -20.8 °C 30.32in /  1026.6hPa NW 10.4mph /  16.7km/h 10.4mph /  16.7km/h 77% 0.00in /  0mm 385.0 W/m2
10:11 0.1 °F /  -17.7 °C -5.4 °F /  -20.8 °C 30.32in /  1026.6hPa WNW 11.5mph /  18.5km/h 11.5mph /  18.5km/h 77% 0.00in /  0mm 387.0 W/m2
10:16 0.3 °F /  -17.6 °C -5.2 °F /  -20.7 °C 30.32in /  1026.6hPa NW 10.4mph /  16.7km/h 10.4mph /  16.7km/h 77% 0.00in /  0mm 396.0 W/m2
10:18 0.5 °F /  -17.5 °C -5.0 °F /  -20.6 °C 30.31in /  1026.3hPa NW 10.4mph /  16.7km/h 10.4mph /  16.7km/h 77% 0.00in /  0mm 397.0 W/m2
10:23 0.9 °F /  -17.3 °C -4.6 °F /  -20.3 °C 30.32in /  1026.6hPa NW 12.7mph /  20.4km/h 12.7mph /  20.4km/h 77% 0.00in /  0mm 406.0 W/m2
10:26 1.0 °F /  -17.2 °C -4.5 °F /  -20.3 °C 30.31in /  1026.3hPa NW 12.0mph /  19.3km/h 12.0mph /  19.3km/h 77% 0.00in /  0mm 408.0 W/m2
10:31 1.3 °F /  -17.1 °C -4.5 °F /  -20.3 °C 30.31in /  1026.3hPa NW 10.4mph /  16.7km/h 10.4mph /  16.7km/h 76% 0.00in /  0mm 415.0 W/m2
10:36 1.6 °F /  -16.9 °C -4.2 °F /  -20.1 °C 30.31in /  1026.3hPa NW 11.5mph /  18.5km/h 11.5mph /  18.5km/h 76% 0.00in /  0mm 424.0 W/m2
10:38 1.7 °F /  -16.8 °C -4.1 °F /  -20.1 °C 30.31in /  1026.3hPa WNW 11.5mph /  18.5km/h 11.5mph /  18.5km/h 76% 0.00in /  0mm 425.0 W/m2
10:42 1.9 °F /  -16.7 °C -3.9 °F /  -19.9 °C 30.31in /  1026.3hPa WNW 10.4mph /  16.7km/h 10.4mph /  16.7km/h 76% 0.00in /  0mm 431.0 W/m2
10:44 2.0 °F /  -16.7 °C -3.8 °F /  -19.9 °C 30.31in /  1026.3hPa WNW 10.4mph /  16.7km/h 10.4mph /  16.7km/h 76% 0.00in /  0mm 432.0 W/m2
10:49 2.2 °F /  -16.6 °C -3.6 °F /  -19.8 °C 30.31in /  1026.3hPa NW 13.8mph /  22.2km/h 13.8mph /  22.2km/h 76% 0.00in /  0mm 438.0 W/m2
10:53 2.3 °F /  -16.5 °C -3.8 °F /  -19.9 °C 30.30in /  1026hPa NW 11.5mph /  18.5km/h 11.5mph /  18.5km/h 75% 0.00in /  0mm 441.0 W/m2
10:57 2.5 °F /  -16.4 °C -3.6 °F /  -19.8 °C 30.37in /  1028.3hPa NW 11.5mph /  18.5km/h 11.5mph /  18.5km/h 75% 0.00in /  0mm 446.0 W/m2
10:58 2.5 °F /  -16.4 °C -3.6 °F /  -19.8 °C 30.30in /  1026hPa WNW 10.4mph /  16.7km/h 10.4mph /  16.7km/h 75% 0.00in /  0mm 446.0 W/m2
11:03 2.7 °F /  -16.3 °C -3.4 °F /  -19.7 °C 30.30in /  1026hPa NW 10.4mph /  16.7km/h 10.4mph /  16.7km/h 75% 0.00in /  0mm 454.0 W/m2
11:05 2.8 °F /  -16.2 °C -3.3 °F /  -19.6 °C 30.30in /  1026hPa WNW 10.4mph /  16.7km/h 10.4mph /  16.7km/h 75% 0.00in /  0mm 454.0 W/m2
11:10 3.1 °F /  -16.1 °C -3.0 °F /  -19.4 °C 30.30in /  1026hPa NW 10.4mph /  16.7km/h 10.4mph /  16.7km/h 75% 0.00in /  0mm 457.0 W/m2
11:12 3.2 °F /  -16 °C -2.9 °F /  -19.4 °C 30.30in /  1026hPa NW 12.7mph /  20.4km/h 12.7mph /  20.4km/h 75% 0.00in /  0mm 459.0 W/m2
11:17 3.4 °F /  -15.9 °C -3.0 °F /  -19.4 °C 30.30in /  1026hPa NW 12.7mph /  20.4km/h 12.7mph /  20.4km/h 74% 0.00in /  0mm 462.0 W/m2
11:20 3.5 °F /  -15.8 °C -2.9 °F /  -19.4 °C 30.30in /  1026hPa WNW 10.4mph /  16.7km/h 10.4mph /  16.7km/h 74% 0.00in /  0mm 466.0 W/m2
11:24 3.6 °F /  -15.8 °C -2.8 °F /  -19.3 °C 30.29in /  1025.6hPa NW 11.5mph /  18.5km/h 11.5mph /  18.5km/h 74% 0.00in /  0mm 466.0 W/m2
11:29 4.0 °F /  -15.6 °C -2.4 °F /  -19.1 °C 30.29in /  1025.6hPa WNW 11.5mph /  18.5km/h 11.5mph /  18.5km/h 74% 0.00in /  0mm 468.0 W/m2
11:31 4.0 °F /  -15.6 °C -2.4 °F /  -19.1 °C 30.36in /  1028hPa NW 12.7mph /  20.4km/h 12.7mph /  20.4km/h 74% 0.00in /  0mm 469.0 W/m2
11:34 4.1 °F /  -15.5 °C -2.6 °F /  -19.2 °C 30.29in /  1025.6hPa WNW 6.9mph /  11.1km/h 6.9mph /  11.1km/h 73% 0.00in /  0mm 469.0 W/m2
11:39 4.5 °F /  -15.3 °C -2.3 °F /  -19.1 °C 30.29in /  1025.6hPa NW 5.8mph /  9.3km/h 5.8mph /  9.3km/h 73% 0.00in /  0mm 473.0 W/m2
11:42 4.7 °F /  -15.2 °C -2.1 °F /  -18.9 °C 30.29in /  1025.6hPa NW 10.4mph /  16.7km/h 10.4mph /  16.7km/h 73% 0.00in /  0mm 475.0 W/m2
11:47 4.9 °F /  -15.1 °C -2.2 °F /  -19 °C 30.29in /  1025.6hPa NW 9.2mph /  14.8km/h 9.2mph /  14.8km/h 72% 0.00in /  0mm 476.0 W/m2
11:52 5.2 °F /  -14.9 °C -1.9 °F /  -18.8 °C 30.29in /  1025.6hPa NW 6.9mph /  11.1km/h 6.9mph /  11.1km/h 72% 0.00in /  0mm 476.0 W/m2
11:56 5.4 °F /  -14.8 °C -1.7 °F /  -18.7 °C 30.29in /  1025.6hPa NW 5.8mph /  9.3km/h 5.8mph /  9.3km/h 72% 0.00in /  0mm 476.0 W/m2
11:59 5.5 °F /  -14.7 °C -1.6 °F /  -18.7 °C 30.29in /  1025.6hPa NW 8.1mph /  13km/h 8.1mph /  13km/h 72% 0.00in /  0mm 476.0 W/m2
12:04 5.8 °F /  -14.6 °C -1.6 °F /  -18.7 °C 30.29in /  1025.6hPa NW 11.5mph /  18.5km/h 11.5mph /  18.5km/h 71% 0.00in /  0mm 476.0 W/m2
12:09 6.0 °F /  -14.4 °C -1.4 °F /  -18.6 °C 30.29in /  1025.6hPa NW 13.8mph /  22.2km/h 13.8mph /  22.2km/h 71% 0.00in /  0mm 476.0 W/m2
12:14 6.3 °F /  -14.3 °C -1.1 °F /  -18.4 °C 30.29in /  1025.6hPa NW 11.5mph /  18.5km/h 11.5mph /  18.5km/h 71% 0.00in /  0mm 475.0 W/m2
12:17 6.3 °F /  -14.3 °C -1.4 °F /  -18.6 °C 30.29in /  1025.6hPa NW 11.5mph /  18.5km/h 11.5mph /  18.5km/h 70% 0.00in /  0mm 475.0 W/m2
12:22 6.5 °F /  -14.2 °C -1.2 °F /  -18.4 °C 30.29in /  1025.6hPa WNW 6.9mph /  11.1km/h 6.9mph /  11.1km/h 70% 0.00in /  0mm 471.0 W/m2
12:23 6.7 °F /  -14.1 °C -0.7 °F /  -18.2 °C 30.29in /  1025.6hPa WNW 8.1mph /  13km/h 8.1mph /  13km/h 71% 0.00in /  0mm 471.0 W/m2
12:27 6.9 °F /  -13.9 °C -0.8 °F /  -18.2 °C 30.29in /  1025.6hPa WNW 10.4mph /  16.7km/h 10.4mph /  16.7km/h 70% 0.00in /  0mm 469.0 W/m2
12:29 7.1 °F /  -13.8 °C -0.6 °F /  -18.1 °C 30.29in /  1025.6hPa NW 8.1mph /  13km/h 8.1mph /  13km/h 70% 0.00in /  0mm 468.0 W/m2
12:34 7.3 °F /  -13.7 °C -0.4 °F /  -18 °C 30.29in /  1025.6hPa WNW 8.1mph /  13km/h 8.1mph /  13km/h 70% 0.00in /  0mm 464.0 W/m2
12:38 7.4 °F /  -13.7 °C -0.3 °F /  -17.9 °C 30.29in /  1025.6hPa WNW 5.8mph /  9.3km/h 5.8mph /  9.3km/h 70% 0.00in /  0mm 462.0 W/m2
12:39 7.5 °F /  -13.6 °C -0.6 °F /  -18.1 °C 30.29in /  1025.6hPa WNW 9.2mph /  14.8km/h 9.2mph /  14.8km/h 69% 0.00in /  0mm 462.0 W/m2
12:43 7.5 °F /  -13.6 °C -0.9 °F /  -18.3 °C 30.29in /  1025.6hPa NW 11.5mph /  18.5km/h 11.5mph /  18.5km/h 68% 0.00in /  0mm 459.0 W/m2
12:45 7.5 °F /  -13.6 °C -0.9 °F /  -18.3 °C 30.29in /  1025.6hPa NW 6.9mph /  11.1km/h 6.9mph /  11.1km/h 68% 0.00in /  0mm 457.0 W/m2
12:50 7.6 °F /  -13.6 °C -0.8 °F /  -18.2 °C 30.28in /  1025.3hPa WNW 11.5mph /  18.5km/h 11.5mph /  18.5km/h 68% 0.00in /  0mm 452.0 W/m2
12:51 7.6 °F /  -13.6 °C -0.8 °F /  -18.2 °C 30.28in /  1025.3hPa WNW 11.5mph /  18.5km/h 11.5mph /  18.5km/h 68% 0.00in /  0mm 452.0 W/m2
12:52 7.6 °F /  -13.6 °C -0.8 °F /  -18.2 °C 30.28in /  1025.3hPa NW 10.4mph /  16.7km/h 10.4mph /  16.7km/h 68% 0.00in /  0mm 450.0 W/m2
12:56 7.6 °F /  -13.6 °C -0.8 °F /  -18.2 °C 30.28in /  1025.3hPa WNW 11.5mph /  18.5km/h 11.5mph /  18.5km/h 68% 0.00in /  0mm 448.0 W/m2
13:01 7.5 °F /  -13.6 °C -0.9 °F /  -18.3 °C 30.28in /  1025.3hPa WNW 11.5mph /  18.5km/h 11.5mph /  18.5km/h 68% 0.00in /  0mm 443.0 W/m2
13:06 7.6 °F /  -13.6 °C -0.5 °F /  -18.1 °C 30.28in /  1025.3hPa NW 9.2mph /  14.8km/h 9.2mph /  14.8km/h 69% 0.00in /  0mm 438.0 W/m2
13:07 7.6 °F /  -13.6 °C -0.5 °F /  -18.1 °C 30.28in /  1025.3hPa WNW 9.2mph /  14.8km/h 9.2mph /  14.8km/h 69% 0.00in /  0mm 436.0 W/m2
13:12 7.7 °F /  -13.5 °C -0.7 °F /  -18.2 °C 30.28in /  1025.3hPa WSW 9.2mph /  14.8km/h 9.2mph /  14.8km/h 68% 0.00in /  0mm 431.0 W/m2
13:13 7.8 °F /  -13.4 °C -0.6 °F /  -18.1 °C 30.28in /  1025.3hPa West 9.2mph /  14.8km/h 9.2mph /  14.8km/h 68% 0.00in /  0mm 429.0 W/m2
13:18 7.9 °F /  -13.4 °C -0.5 °F /  -18.1 °C 30.35in /  1027.7hPa WNW 9.2mph /  14.8km/h 9.2mph /  14.8km/h 68% 0.00in /  0mm 422.0 W/m2
13:19 7.9 °F /  -13.4 °C -0.5 °F /  -18.1 °C 30.28in /  1025.3hPa WNW 11.5mph /  18.5km/h 11.5mph /  18.5km/h 68% 0.00in /  0mm 422.0 W/m2
13:24 7.9 °F /  -13.4 °C -0.5 °F /  -18.1 °C 30.28in /  1025.3hPa West 11.5mph /  18.5km/h 11.5mph /  18.5km/h 68% 0.00in /  0mm 415.0 W/m2
13:29 8.0 °F /  -13.3 °C -0.1 °F /  -17.8 °C 30.29in /  1025.6hPa West 8.1mph /  13km/h 8.1mph /  13km/h 69% 0.00in /  0mm 408.0 W/m2
13:30 8.0 °F /  -13.3 °C -0.1 °F /  -17.8 °C 30.35in /  1027.7hPa WNW 10.0mph /  16.1km/h 10.0mph /  16.1km/h 69% 0.00in /  0mm 408.0 W/m2
13:31 8.0 °F /  -13.3 °C -0.4 °F /  -18 °C 30.29in /  1025.6hPa WNW 11.5mph /  18.5km/h 11.5mph /  18.5km/h 68% 0.00in /  0mm 406.0 W/m2
13:34 8.1 °F /  -13.3 °C -0.3 °F /  -17.9 °C 30.29in /  1025.6hPa West 2.3mph /  3.7km/h 4.3mph /  6.9km/h 68% 0.00in /  0mm 401.0 W/m2
13:37 8.0 °F /  -13.3 °C -0.4 °F /  -18 °C 30.29in /  1025.6hPa West 11.5mph /  18.5km/h 11.5mph /  18.5km/h 68% 0.00in /  0mm 396.0 W/m2
13:42 7.8 °F /  -13.4 °C -0.9 °F /  -18.3 °C 30.29in /  1025.6hPa WNW 11.5mph /  18.5km/h 11.5mph /  18.5km/h 67% 0.00in /  0mm 388.0 W/m2
13:43 7.8 °F /  -13.4 °C -0.9 °F /  -18.3 °C 30.29in /  1025.6hPa WNW 10.4mph /  16.7km/h 10.4mph /  16.7km/h 67% 0.00in /  0mm 388.0 W/m2
13:48 7.8 °F /  -13.4 °C -0.9 °F /  -18.3 °C 30.29in /  1025.6hPa West 11.5mph /  18.5km/h 11.5mph /  18.5km/h 67% 0.00in /  0mm 380.0 W/m2
13:49 7.8 °F /  -13.4 °C -0.9 °F /  -18.3 °C 30.29in /  1025.6hPa West 11.5mph /  18.5km/h 11.5mph /  18.5km/h 67% 0.00in /  0mm 376.0 W/m2
13:50 7.8 °F /  -13.4 °C -0.9 °F /  -18.3 °C 30.29in /  1025.6hPa WNW 11.5mph /  18.5km/h 11.5mph /  18.5km/h 67% 0.00in /  0mm 374.0 W/m2
13:55 7.8 °F /  -13.4 °C -0.9 °F /  -18.3 °C 30.29in /  1025.6hPa NW 12.7mph /  20.4km/h 12.7mph /  20.4km/h 67% 0.00in /  0mm 366.0 W/m2
14:00 8.0 °F /  -13.3 °C -0.4 °F /  -18 °C 30.29in /  1025.6hPa WNW 11.5mph /  18.5km/h 11.5mph /  18.5km/h 68% 0.00in /  0mm 357.0 W/m2
14:03 8.0 °F /  -13.3 °C -0.7 °F /  -18.2 °C 30.29in /  1025.6hPa NW 11.5mph /  18.5km/h 11.5mph /  18.5km/h 67% 0.00in /  0mm 355.0 W/m2
14:08 8.0 °F /  -13.3 °C -0.7 °F /  -18.2 °C 30.29in /  1025.6hPa West 11.5mph /  18.5km/h 11.5mph /  18.5km/h 67% 0.00in /  0mm 345.0 W/m2
14:09 8.0 °F /  -13.3 °C -0.7 °F /  -18.2 °C 30.30in /  1026hPa West 11.5mph /  18.5km/h 11.5mph /  18.5km/h 67% 0.00in /  0mm 343.0 W/m2
14:12 8.0 °F /  -13.3 °C -0.7 °F /  -18.2 °C 30.36in /  1028hPa West 11.5mph /  18.5km/h 11.5mph /  18.5km/h 67% 0.00in /  0mm 336.0 W/m2
14:13 8.0 °F /  -13.3 °C -0.7 °F /  -18.2 °C 30.30in /  1026hPa West 11.5mph /  18.5km/h 11.5mph /  18.5km/h 67% 0.00in /  0mm 334.0 W/m2
14:18 8.2 °F /  -13.2 °C -0.5 °F /  -18.1 °C 30.30in /  1026hPa NW 11.5mph /  18.5km/h 11.5mph /  18.5km/h 67% 0.00in /  0mm 323.0 W/m2
14:22 8.2 °F /  -13.2 °C -0.5 °F /  -18.1 °C 30.30in /  1026hPa West 8.1mph /  13km/h 8.1mph /  13km/h 67% 0.00in /  0mm 316.0 W/m2
14:23 8.2 °F /  -13.2 °C -0.5 °F /  -18.1 °C 30.30in /  1026hPa NW 8.1mph /  13km/h 8.1mph /  13km/h 67% 0.00in /  0mm 313.0 W/m2
14:28 8.3 °F /  -13.2 °C -0.4 °F /  -18 °C 30.30in /  1026hPa West 12.7mph /  20.4km/h 12.7mph /  20.4km/h 67% 0.00in /  0mm 302.0 W/m2
14:33 8.2 °F /  -13.2 °C -0.5 °F /  -18.1 °C 30.30in /  1026hPa West 9.0mph /  14.5km/h 9.0mph /  14.5km/h 67% 0.00in /  0mm 292.0 W/m2
14:34 8.3 °F /  -13.2 °C -0.4 °F /  -18 °C 30.30in /  1026hPa WNW 11.5mph /  18.5km/h 11.5mph /  18.5km/h 67% 0.00in /  0mm 288.0 W/m2
14:36 8.2 °F /  -13.2 °C -0.5 °F /  -18.1 °C 30.30in /  1026hPa WNW 11.5mph /  18.5km/h 11.5mph /  18.5km/h 67% 0.00in /  0mm 285.0 W/m2
14:37 8.2 °F /  -13.2 °C -0.5 °F /  -18.1 °C 30.30in /  1026hPa NW 13.8mph /  22.2km/h 13.8mph /  22.2km/h 67% 0.00in /  0mm 281.0 W/m2
14:42 8.2 °F /  -13.2 °C -0.5 °F /  -18.1 °C 30.30in /  1026hPa West 11.0mph /  17.7km/h 11.0mph /  17.7km/h 67% 0.00in /  0mm 271.0 W/m2
14:47 8.1 °F /  -13.3 °C -0.6 °F /  -18.1 °C 30.30in /  1026hPa WNW 9.2mph /  14.8km/h 9.2mph /  14.8km/h 67% 0.00in /  0mm 255.0 W/m2
14:51 8.0 °F /  -13.3 °C -0.7 °F /  -18.2 °C 30.30in /  1026hPa West 11.5mph /  18.5km/h 11.5mph /  18.5km/h 67% 0.00in /  0mm 244.0 W/m2
14:56 7.9 °F /  -13.4 °C -0.8 °F /  -18.2 °C 30.30in /  1026hPa WNW 12.7mph /  20.4km/h 12.7mph /  20.4km/h 67% 0.00in /  0mm 227.0 W/m2
14:59 7.8 °F /  -13.4 °C -0.9 °F /  -18.3 °C 30.30in /  1026hPa WNW 11.5mph /  18.5km/h 11.5mph /  18.5km/h 67% 0.00in /  0mm 218.0 W/m2
15:01 7.7 °F /  -13.5 °C -0.7 °F /  -18.2 °C 30.30in /  1026hPa West 11.5mph /  18.5km/h 11.5mph /  18.5km/h 68% 0.00in /  0mm 209.0 W/m2
15:06 7.6 °F /  -13.6 °C -0.8 °F /  -18.2 °C 30.30in /  1026hPa West 12.7mph /  20.4km/h 12.7mph /  20.4km/h 68% 0.00in /  0mm 193.0 W/m2
15:07 7.6 °F /  -13.6 °C -0.8 °F /  -18.2 °C 30.36in /  1028hPa NW 12.7mph /  20.4km/h 12.7mph /  20.4km/h 68% 0.00in /  0mm 193.0 W/m2
15:09 7.5 °F /  -13.6 °C -0.9 °F /  -18.3 °C 30.30in /  1026hPa WNW 11.5mph /  18.5km/h 11.5mph /  18.5km/h 68% 0.00in /  0mm 188.0 W/m2
15:14 7.2 °F /  -13.8 °C -0.8 °F /  -18.2 °C 30.30in /  1026hPa WNW 13.8mph /  22.2km/h 13.8mph /  22.2km/h 69% 0.00in /  0mm 172.0 W/m2
15:21 6.9 °F /  -13.9 °C -1.1 °F /  -18.4 °C 30.30in /  1026hPa NW 11.5mph /  18.5km/h 11.5mph /  18.5km/h 69% 0.00in /  0mm 151.0 W/m2
15:22 6.9 °F /  -13.9 °C -1.1 °F /  -18.4 °C 30.37in /  1028.3hPa West 10.4mph /  16.7km/h 10.4mph /  16.7km/h 69% 0.00in /  0mm 142.0 W/m2
15:28 6.7 °F /  -14.1 °C -1.0 °F /  -18.3 °C 30.36in /  1028hPa WNW 9.2mph /  14.8km/h 9.2mph /  14.8km/h 70% 0.00in /  0mm 125.0 W/m2
15:29 6.7 °F /  -14.1 °C -1.0 °F /  -18.3 °C 30.37in /  1028.3hPa WNW 10.4mph /  16.7km/h 10.4mph /  16.7km/h 70% 0.00in /  0mm 125.0 W/m2
15:31 6.6 °F /  -14.1 °C -1.1 °F /  -18.4 °C 30.36in /  1028hPa NW 9.2mph /  14.8km/h 9.2mph /  14.8km/h 70% 0.00in /  0mm 120.0 W/m2
15:32 6.6 °F /  -14.1 °C -1.1 °F /  -18.4 °C 30.36in /  1028hPa NW 8.1mph /  13km/h 8.1mph /  13km/h 70% 0.00in /  0mm 114.0 W/m2
15:41 6.2 °F /  -14.3 °C -1.5 °F /  -18.6 °C 30.30in /  1026hPa West 10.4mph /  16.7km/h 10.4mph /  16.7km/h 70% 0.00in /  0mm 91.0 W/m2
15:42 6.1 °F /  -14.4 °C -1.6 °F /  -18.7 °C 30.37in /  1028.3hPa WNW 11.5mph /  18.5km/h 11.5mph /  18.5km/h 70% 0.00in /  0mm 83.0 W/m2
15:43 6.0 °F /  -14.4 °C -1.7 °F /  -18.7 °C 30.37in /  1028.3hPa West 11.5mph /  18.5km/h 11.5mph /  18.5km/h 70% 0.00in /  0mm 54.0 W/m2
15:44 6.0 °F /  -14.4 °C -1.4 °F /  -18.6 °C 30.30in /  1026hPa WNW 11.5mph /  18.5km/h 11.5mph /  18.5km/h 71% 0.00in /  0mm 40.0 W/m2
15:45 5.9 °F /  -14.5 °C -1.5 °F /  -18.6 °C 30.30in /  1026hPa West 11.5mph /  18.5km/h 11.5mph /  18.5km/h 71% 0.00in /  0mm 32.0 W/m2
15:47 5.8 °F /  -14.6 °C -1.6 °F /  -18.7 °C 30.37in /  1028.3hPa WNW 11.5mph /  18.5km/h 11.5mph /  18.5km/h 71% 0.00in /  0mm 28.0 W/m2
15:48 5.8 °F /  -14.6 °C -1.6 °F /  -18.7 °C 30.30in /  1026hPa WNW 11.5mph /  18.5km/h 11.5mph /  18.5km/h 71% 0.00in /  0mm 28.0 W/m2
15:49 5.7 °F /  -14.6 °C -1.7 °F /  -18.7 °C 30.37in /  1028.3hPa WNW 11.5mph /  18.5km/h 11.5mph /  18.5km/h 71% 0.00in /  0mm 28.0 W/m2
15:50 5.6 °F /  -14.7 °C -1.8 °F /  -18.8 °C 30.30in /  1026hPa NW 12.0mph /  19.3km/h 12.0mph /  19.3km/h 71% 0.00in /  0mm 28.0 W/m2
15:54 5.5 °F /  -14.7 °C -1.9 °F /  -18.8 °C 30.30in /  1026hPa NW 11.0mph /  17.7km/h 11.0mph /  17.7km/h 71% 0.00in /  0mm 26.0 W/m2
15:58 5.3 °F /  -14.8 °C -1.8 °F /  -18.8 °C 30.31in /  1026.3hPa WNW 13.8mph /  22.2km/h 13.8mph /  22.2km/h 72% 0.00in /  0mm 25.0 W/m2
16:01 5.2 °F /  -14.9 °C -1.9 °F /  -18.8 °C 30.31in /  1026.3hPa WNW 8.1mph /  13km/h 8.1mph /  13km/h 72% 0.00in /  0mm 23.0 W/m2
16:06 5.0 °F /  -15 °C -2.1 °F /  -18.9 °C 30.31in /  1026.3hPa WNW 11.5mph /  18.5km/h 11.5mph /  18.5km/h 72% 0.00in /  0mm 21.0 W/m2
16:09 4.9 °F /  -15.1 °C -2.2 °F /  -19 °C 30.31in /  1026.3hPa WNW 9.2mph /  14.8km/h 9.2mph /  14.8km/h 72% 0.00in /  0mm 19.0 W/m2
16:13 4.7 °F /  -15.2 °C -2.1 °F /  -18.9 °C 30.31in /  1026.3hPa West 11.0mph /  17.7km/h 11.0mph /  17.7km/h 73% 0.00in /  0mm 16.0 W/m2
16:17 4.6 °F /  -15.2 °C -2.2 °F /  -19 °C 30.31in /  1026.3hPa WNW 10.0mph /  16.1km/h 10.0mph /  16.1km/h 73% 0.00in /  0mm 12.0 W/m2
16:20 4.5 °F /  -15.3 °C -2.3 °F /  -19.1 °C 30.31in /  1026.3hPa WNW 9.2mph /  14.8km/h 9.2mph /  14.8km/h 73% 0.00in /  0mm 11.0 W/m2
16:25 4.3 °F /  -15.4 °C -2.4 °F /  -19.1 °C 30.31in /  1026.3hPa West 9.2mph /  14.8km/h 9.2mph /  14.8km/h 73% 0.00in /  0mm 7.0 W/m2
16:26 4.2 °F /  -15.4 °C -2.5 °F /  -19.2 °C 30.31in /  1026.3hPa WNW 8.1mph /  13km/h 8.1mph /  13km/h 73% 0.00in /  0mm 7.0 W/m2
16:31 4.1 °F /  -15.5 °C -2.6 °F /  -19.2 °C 30.31in /  1026.3hPa WNW 10.4mph /  16.7km/h 10.4mph /  16.7km/h 73% 0.00in /  0mm 5.0 W/m2
16:34 4.0 °F /  -15.6 °C -2.7 °F /  -19.3 °C 30.31in /  1026.3hPa West 9.2mph /  14.8km/h 9.2mph /  14.8km/h 73% 0.00in /  0mm 0.0 W/m2
16:39 3.8 °F /  -15.7 °C -2.9 °F /  -19.4 °C 30.31in /  1026.3hPa NW 11.0mph /  17.7km/h 11.0mph /  17.7km/h 73% 0.00in /  0mm 0.0 W/m2
16:40 3.8 °F /  -15.7 °C -2.9 °F /  -19.4 °C 30.31in /  1026.3hPa WNW 11.5mph /  18.5km/h 11.5mph /  18.5km/h 73% 0.00in /  0mm 0.0 W/m2
16:44 3.7 °F /  -15.7 °C -2.7 °F /  -19.3 °C 30.31in /  1026.3hPa WNW 10.4mph /  16.7km/h 10.4mph /  16.7km/h 74% 0.00in /  0mm 0.0 W/m2
16:47 3.6 °F /  -15.8 °C -3.1 °F /  -19.5 °C 30.31in /  1026.3hPa West 9.2mph /  14.8km/h 9.2mph /  14.8km/h 73% 0.00in /  0mm 0.0 W/m2
16:50 3.5 °F /  -15.8 °C -3.2 °F /  -19.6 °C 30.31in /  1026.3hPa NW 10.4mph /  16.7km/h 10.4mph /  16.7km/h 73% 0.00in /  0mm 0.0 W/m2
16:52 3.4 °F /  -15.9 °C -3.0 °F /  -19.4 °C 30.31in /  1026.3hPa NW 11.5mph /  18.5km/h 11.5mph /  18.5km/h 74% 0.00in /  0mm 0.0 W/m2
16:58 3.2 °F /  -16 °C -3.2 °F /  -19.6 °C 30.31in /  1026.3hPa WNW 10.4mph /  16.7km/h 10.4mph /  16.7km/h 74% 0.00in /  0mm 0.0 W/m2
16:59 3.2 °F /  -16 °C -3.2 °F /  -19.6 °C 30.31in /  1026.3hPa WNW 9.2mph /  14.8km/h 9.2mph /  14.8km/h 74% 0.00in /  0mm 0.0 W/m2
17:04 3.1 °F /  -16.1 °C -3.3 °F /  -19.6 °C 30.31in /  1026.3hPa WNW 6.9mph /  11.1km/h 6.9mph /  11.1km/h 74% 0.00in /  0mm 0.0 W/m2
17:05 3.0 °F /  -16.1 °C -3.4 °F /  -19.7 °C 30.31in /  1026.3hPa WNW 8.1mph /  13km/h 8.1mph /  13km/h 74% 0.00in /  0mm 0.0 W/m2
17:10 2.9 °F /  -16.2 °C -3.2 °F /  -19.6 °C 30.31in /  1026.3hPa WNW 11.5mph /  18.5km/h 11.5mph /  18.5km/h 75% 0.00in /  0mm 0.0 W/m2
17:20 2.7 °F /  -16.3 °C -3.4 °F /  -19.7 °C 30.32in /  1026.6hPa WNW 9.2mph /  14.8km/h 9.2mph /  14.8km/h 75% 0.00in /  0mm 0.0 W/m2
17:21 2.7 °F /  -16.3 °C -3.4 °F /  -19.7 °C 30.32in /  1026.6hPa NW 10.4mph /  16.7km/h 10.4mph /  16.7km/h 75% 0.00in /  0mm 0.0 W/m2
17:26 2.5 °F /  -16.4 °C -3.6 °F /  -19.8 °C 30.32in /  1026.6hPa NW 10.4mph /  16.7km/h 10.4mph /  16.7km/h 75% 0.00in /  0mm 0.0 W/m2
17:28 2.4 °F /  -16.4 °C -3.7 °F /  -19.8 °C 30.32in /  1026.6hPa West 8.1mph /  13km/h 8.1mph /  13km/h 75% 0.00in /  0mm 0.0 W/m2
17:33 2.3 °F /  -16.5 °C -3.5 °F /  -19.7 °C 30.32in /  1026.6hPa WNW 8.1mph /  13km/h 8.1mph /  13km/h 76% 0.00in /  0mm 0.0 W/m2
17:39 2.2 °F /  -16.6 °C -3.6 °F /  -19.8 °C 30.32in /  1026.6hPa WNW 6.9mph /  11.1km/h 6.9mph /  11.1km/h 76% 0.00in /  0mm 0.0 W/m2
17:40 2.2 °F /  -16.6 °C -3.6 °F /  -19.8 °C 30.32in /  1026.6hPa WNW 8.1mph /  13km/h 8.1mph /  13km/h 76% 0.00in /  0mm 0.0 W/m2
17:41 2.1 °F /  -16.6 °C -3.7 °F /  -19.8 °C 30.32in /  1026.6hPa WNW 7.0mph /  11.3km/h 7.0mph /  11.3km/h 76% 0.00in /  0mm 0.0 W/m2
17:47 1.9 °F /  -16.7 °C -3.9 °F /  -19.9 °C 30.32in /  1026.6hPa West 8.1mph /  13km/h 8.1mph /  13km/h 76% 0.00in /  0mm 0.0 W/m2
17:51 1.7 °F /  -16.8 °C -3.8 °F /  -19.9 °C 30.32in /  1026.6hPa WNW 8.1mph /  13km/h 8.1mph /  13km/h 77% 0.00in /  0mm 0.0 W/m2
17:53 1.6 °F /  -16.9 °C -3.9 °F /  -19.9 °C 30.32in /  1026.6hPa NW 8.1mph /  13km/h 8.1mph /  13km/h 77% 0.00in /  0mm 0.0 W/m2
17:58 1.5 °F /  -16.9 °C -4.0 °F /  -20 °C 30.32in /  1026.6hPa WNW 6.9mph /  11.1km/h 6.9mph /  11.1km/h 77% 0.00in /  0mm 0.0 W/m2
18:03 1.6 °F /  -16.9 °C -3.7 °F /  -19.8 °C 30.32in /  1026.6hPa WNW 4.6mph /  7.4km/h 4.6mph /  7.4km/h 78% 0.00in /  0mm 0.0 W/m2
18:05 1.6 °F /  -16.9 °C -3.7 °F /  -19.8 °C 30.32in /  1026.6hPa WNW 9.2mph /  14.8km/h 9.2mph /  14.8km/h 78% 0.00in /  0mm 0.0 W/m2
18:10 1.9 °F /  -16.7 °C -3.4 °F /  -19.7 °C 30.32in /  1026.6hPa NW 6.9mph /  11.1km/h 6.9mph /  11.1km/h 78% 0.00in /  0mm 0.0 W/m2
18:13 1.8 °F /  -16.8 °C -3.5 °F /  -19.7 °C 30.32in /  1026.6hPa WNW 9.2mph /  14.8km/h 9.2mph /  14.8km/h 78% 0.00in /  0mm 0.0 W/m2
18:18 1.7 °F /  -16.8 °C -3.6 °F /  -19.8 °C 30.32in /  1026.6hPa WNW 9.2mph /  14.8km/h 9.2mph /  14.8km/h 78% 0.00in /  0mm 0.0 W/m2
18:24 1.5 °F /  -16.9 °C -4.0 °F /  -20 °C 30.32in /  1026.6hPa WNW 8.1mph /  13km/h 8.1mph /  13km/h 77% 0.00in /  0mm 0.0 W/m2
18:29 1.5 °F /  -16.9 °C -3.8 °F /  -19.9 °C 30.32in /  1026.6hPa WNW 11.5mph /  18.5km/h 11.5mph /  18.5km/h 78% 0.00in /  0mm 0.0 W/m2
18:34 1.6 °F /  -16.9 °C -3.7 °F /  -19.8 °C 30.32in /  1026.6hPa WNW 9.2mph /  14.8km/h 9.2mph /  14.8km/h 78% 0.00in /  0mm 0.0 W/m2
18:35 1.5 °F /  -16.9 °C -3.8 °F /  -19.9 °C 30.32in /  1026.6hPa WNW 10.4mph /  16.7km/h 10.4mph /  16.7km/h 78% 0.00in /  0mm 0.0 W/m2
18:36 1.6 °F /  -16.9 °C -3.7 °F /  -19.8 °C 30.32in /  1026.6hPa WNW 9.2mph /  14.8km/h 9.2mph /  14.8km/h 78% 0.00in /  0mm 0.0 W/m2
18:41 1.5 °F /  -16.9 °C -3.8 °F /  -19.9 °C 30.32in /  1026.6hPa WNW 8.1mph /  13km/h 8.1mph /  13km/h 78% 0.00in /  0mm 0.0 W/m2
18:46 1.6 °F /  -16.9 °C -3.7 °F /  -19.8 °C 30.32in /  1026.6hPa West 9.2mph /  14.8km/h 9.2mph /  14.8km/h 78% 0.00in /  0mm 0.0 W/m2
18:47 1.6 °F /  -16.9 °C -3.7 °F /  -19.8 °C 30.32in /  1026.6hPa WNW 8.1mph /  13km/h 8.1mph /  13km/h 78% 0.00in /  0mm 0.0 W/m2
18:52 1.5 °F /  -16.9 °C -4.0 °F /  -20 °C 30.32in /  1026.6hPa WNW 9.2mph /  14.8km/h 9.2mph /  14.8km/h 77% 0.00in /  0mm 0.0 W/m2
18:53 1.5 °F /  -16.9 °C -4.0 °F /  -20 °C 30.33in /  1027hPa WNW 9.0mph /  14.5km/h 9.0mph /  14.5km/h 77% 0.00in /  0mm 0.0 W/m2
18:58 1.4 °F /  -17 °C -3.9 °F /  -19.9 °C 30.33in /  1027hPa WNW 9.2mph /  14.8km/h 9.2mph /  14.8km/h 78% 0.00in /  0mm 0.0 W/m2
19:04 1.4 °F /  -17 °C -3.9 °F /  -19.9 °C 30.33in /  1027hPa West 9.2mph /  14.8km/h 9.2mph /  14.8km/h 78% 0.00in /  0mm 0.0 W/m2
19:09 1.1 °F /  -17.2 °C -4.2 °F /  -20.1 °C 30.33in /  1027hPa WNW 8.1mph /  13km/h 8.1mph /  13km/h 78% 0.00in /  0mm 0.0 W/m2
19:13 1.0 °F /  -17.2 °C -4.3 °F /  -20.2 °C 30.33in /  1027hPa WNW 10.4mph /  16.7km/h 10.4mph /  16.7km/h 78% 0.00in /  0mm 0.0 W/m2
19:18 0.9 °F /  -17.3 °C -4.4 °F /  -20.2 °C 30.32in /  1026.6hPa WNW 9.2mph /  14.8km/h 9.2mph /  14.8km/h 78% 0.00in /  0mm 0.0 W/m2
19:23 0.9 °F /  -17.3 °C -4.4 °F /  -20.2 °C 30.33in /  1027hPa WNW 10.4mph /  16.7km/h 10.4mph /  16.7km/h 78% 0.00in /  0mm 0.0 W/m2
19:28 1.0 °F /  -17.2 °C -4.3 °F /  -20.2 °C 30.33in /  1027hPa NW 6.0mph /  9.7km/h 6.0mph /  9.7km/h 78% 0.00in /  0mm 0.0 W/m2
19:31 1.0 °F /  -17.2 °C -4.3 °F /  -20.2 °C 30.32in /  1026.6hPa WNW 6.9mph /  11.1km/h 6.9mph /  11.1km/h 78% 0.00in /  0mm 0.0 W/m2
19:35 0.9 °F /  -17.3 °C -4.4 °F /  -20.2 °C 30.32in /  1026.6hPa West 6.9mph /  11.1km/h 6.9mph /  11.1km/h 78% 0.00in /  0mm 0.0 W/m2
19:40 0.9 °F /  -17.3 °C -4.4 °F /  -20.2 °C 30.32in /  1026.6hPa WNW 8.1mph /  13km/h 8.1mph /  13km/h 78% 0.00in /  0mm 0.0 W/m2
19:45 0.9 °F /  -17.3 °C -4.4 °F /  -20.2 °C 30.32in /  1026.6hPa WNW 11.5mph /  18.5km/h 11.5mph /  18.5km/h 78% 0.00in /  0mm 0.0 W/m2
19:46 0.9 °F /  -17.3 °C -4.4 °F /  -20.2 °C 30.32in /  1026.6hPa WNW 11.5mph /  18.5km/h 11.5mph /  18.5km/h 78% 0.00in /  0mm 0.0 W/m2
19:48 0.9 °F /  -17.3 °C -4.4 °F /  -20.2 °C 30.32in /  1026.6hPa West 9.2mph /  14.8km/h 9.2mph /  14.8km/h 78% 0.00in /  0mm 0.0 W/m2
19:51 0.9 °F /  -17.3 °C -4.4 °F /  -20.2 °C 30.32in /  1026.6hPa WNW 6.9mph /  11.1km/h 6.9mph /  11.1km/h 78% 0.00in /  0mm 0.0 W/m2
19:54 0.9 °F /  -17.3 °C -4.4 °F /  -20.2 °C 30.33in /  1027hPa WNW 8.1mph /  13km/h 8.1mph /  13km/h 78% 0.00in /  0mm 0.0 W/m2
19:59 0.8 °F /  -17.3 °C -4.5 °F /  -20.3 °C 30.33in /  1027hPa WNW 8.0mph /  12.9km/h 8.0mph /  12.9km/h 78% 0.00in /  0mm 0.0 W/m2
20:01 0.7 °F /  -17.4 °C -4.6 °F /  -20.3 °C 30.32in /  1026.6hPa WNW 10.4mph /  16.7km/h 10.4mph /  16.7km/h 78% 0.00in /  0mm 0.0 W/m2
20:06 0.6 °F /  -17.4 °C -4.4 °F /  -20.2 °C 30.32in /  1026.6hPa NW 10.4mph /  16.7km/h 10.4mph /  16.7km/h 79% 0.00in /  0mm 0.0 W/m2
20:09 0.6 °F /  -17.4 °C -4.4 °F /  -20.2 °C 30.32in /  1026.6hPa NW 8.1mph /  13km/h 8.1mph /  13km/h 79% 0.00in /  0mm 0.0 W/m2
20:14 0.5 °F /  -17.5 °C -4.5 °F /  -20.3 °C 30.33in /  1027hPa WNW 8.0mph /  12.9km/h 8.0mph /  12.9km/h 79% 0.00in /  0mm 0.0 W/m2
20:19 0.5 °F /  -17.5 °C -4.5 °F /  -20.3 °C 30.33in /  1027hPa WNW 9.2mph /  14.8km/h 9.2mph /  14.8km/h 79% 0.00in /  0mm 0.0 W/m2
20:25 0.3 °F /  -17.6 °C -4.9 °F /  -20.5 °C 30.33in /  1027hPa WNW 7.0mph /  11.3km/h 7.0mph /  11.3km/h 78% 0.00in /  0mm 0.0 W/m2
20:26 0.3 °F /  -17.6 °C -4.7 °F /  -20.4 °C 30.33in /  1027hPa WNW 6.9mph /  11.1km/h 6.9mph /  11.1km/h 79% 0.00in /  0mm 0.0 W/m2
20:31 0.2 °F /  -17.7 °C -4.8 °F /  -20.4 °C 30.33in /  1027hPa WNW 8.1mph /  13km/h 8.1mph /  13km/h 79% 0.00in /  0mm 0.0 W/m2
20:32 0.2 °F /  -17.7 °C -4.8 °F /  -20.4 °C 30.33in /  1027hPa WNW 6.9mph /  11.1km/h 6.9mph /  11.1km/h 79% 0.00in /  0mm 0.0 W/m2
20:33 0.2 °F /  -17.7 °C -4.8 °F /  -20.4 °C 30.33in /  1027hPa WNW 5.8mph /  9.3km/h 5.8mph /  9.3km/h 79% 0.00in /  0mm 0.0 W/m2
20:40 0.2 °F /  -17.7 °C -4.8 °F /  -20.4 °C 30.33in /  1027hPa WNW 8.1mph /  13km/h 8.1mph /  13km/h 79% 0.00in /  0mm 0.0 W/m2
20:45 0.1 °F /  -17.7 °C -4.9 °F /  -20.5 °C 30.33in /  1027hPa WNW 8.1mph /  13km/h 8.1mph /  13km/h 79% 0.00in /  0mm 0.0 W/m2
20:46 0.1 °F /  -17.7 °C -4.9 °F /  -20.5 °C 30.33in /  1027hPa WNW 9.2mph /  14.8km/h 9.2mph /  14.8km/h 79% 0.00in /  0mm 0.0 W/m2
20:51 0.1 °F /  -17.7 °C -4.9 °F /  -20.5 °C 30.32in /  1026.6hPa WNW 6.9mph /  11.1km/h 6.9mph /  11.1km/h 79% 0.00in /  0mm 0.0 W/m2
20:53 0.1 °F /  -17.7 °C -4.9 °F /  -20.5 °C 30.33in /  1027hPa WNW 8.1mph /  13km/h 8.1mph /  13km/h 79% 0.00in /  0mm 0.0 W/m2
20:58 0.0 °F /  -17.8 °C -5.0 °F /  -20.6 °C 30.33in /  1027hPa NW 8.1mph /  13km/h 8.1mph /  13km/h 79% 0.00in /  0mm 0.0 W/m2
21:01 -0.2 °F /  -17.9 °C -5.2 °F /  -20.7 °C 30.33in /  1027hPa WNW 9.2mph /  14.8km/h 9.2mph /  14.8km/h 79% 0.00in /  0mm 0.0 W/m2
21:07 -0.4 °F /  -18 °C -5.4 °F /  -20.8 °C 30.33in /  1027hPa WNW 6.0mph /  9.7km/h 6.0mph /  9.7km/h 79% 0.00in /  0mm 0.0 W/m2
21:09 -0.4 °F /  -18 °C -5.4 °F /  -20.8 °C 30.33in /  1027hPa WNW 9.2mph /  14.8km/h 9.2mph /  14.8km/h 79% 0.00in /  0mm 0.0 W/m2
21:14 -0.5 °F /  -18.1 °C -5.5 °F /  -20.8 °C 30.33in /  1027hPa WNW 6.9mph /  11.1km/h 6.9mph /  11.1km/h 79% 0.00in /  0mm 0.0 W/m2
21:18 -0.5 °F /  -18.1 °C -5.5 °F /  -20.8 °C 30.33in /  1027hPa WNW 10.0mph /  16.1km/h 10.0mph /  16.1km/h 79% 0.00in /  0mm 0.0 W/m2
21:19 -0.6 °F /  -18.1 °C -5.3 °F /  -20.7 °C 30.33in /  1027hPa West 10.4mph /  16.7km/h 10.4mph /  16.7km/h 80% 0.00in /  0mm 0.0 W/m2
21:24 -0.7 °F /  -18.2 °C -5.7 °F /  -20.9 °C 30.33in /  1027hPa West 5.8mph /  9.3km/h 5.8mph /  9.3km/h 79% 0.00in /  0mm 0.0 W/m2
21:29 -0.9 °F /  -18.3 °C -5.8 °F /  -21 °C 30.33in /  1027hPa WNW 9.2mph /  14.8km/h 9.2mph /  14.8km/h 79% 0.00in /  0mm 0.0 W/m2
21:33 -0.9 °F /  -18.3 °C -5.6 °F /  -20.9 °C 30.33in /  1027hPa WNW 6.9mph /  11.1km/h 6.9mph /  11.1km/h 80% 0.00in /  0mm 0.0 W/m2
21:36 -0.9 °F /  -18.3 °C -5.6 °F /  -20.9 °C 30.33in /  1027hPa WNW 5.8mph /  9.3km/h 5.8mph /  9.3km/h 80% 0.00in /  0mm 0.0 W/m2
21:39 -0.9 °F /  -18.3 °C -5.6 °F /  -20.9 °C 30.33in /  1027hPa WNW 5.8mph /  9.3km/h 5.8mph /  9.3km/h 80% 0.00in /  0mm 0.0 W/m2
21:44 -1.0 °F /  -18.3 °C -5.7 °F /  -20.9 °C 30.34in /  1027.3hPa WNW 6.9mph /  11.1km/h 6.9mph /  11.1km/h 80% 0.00in /  0mm 0.0 W/m2
21:50 -0.9 °F /  -18.3 °C -5.6 °F /  -20.9 °C 30.34in /  1027.3hPa West 6.9mph /  11.1km/h 6.9mph /  11.1km/h 80% 0.00in /  0mm 0.0 W/m2
21:55 -0.6 °F /  -18.1 °C -5.0 °F /  -20.6 °C 30.34in /  1027.3hPa WNW 5.8mph /  9.3km/h 5.8mph /  9.3km/h 81% 0.00in /  0mm 0.0 W/m2
22:00 -0.5 °F /  -18.1 °C -5.2 °F /  -20.7 °C 30.34in /  1027.3hPa West 6.9mph /  11.1km/h 6.9mph /  11.1km/h 80% 0.00in /  0mm 0.0 W/m2
22:01 -0.6 °F /  -18.1 °C -5.3 °F /  -20.7 °C 30.34in /  1027.3hPa WNW 6.9mph /  11.1km/h 6.9mph /  11.1km/h 80% 0.00in /  0mm 0.0 W/m2
22:06 -0.8 °F /  -18.2 °C -5.5 °F /  -20.8 °C 30.33in /  1027hPa WNW 3.5mph /  5.6km/h 3.5mph /  5.6km/h 80% 0.00in /  0mm 0.0 W/m2
22:08 -0.8 °F /  -18.2 °C -5.5 °F /  -20.8 °C 30.33in /  1027hPa WNW 6.0mph /  9.7km/h 6.0mph /  9.7km/h 80% 0.00in /  0mm 0.0 W/m2
22:13 -0.9 °F /  -18.3 °C -5.3 °F /  -20.7 °C 30.33in /  1027hPa West 5.8mph /  9.3km/h 5.8mph /  9.3km/h 81% 0.00in /  0mm 0.0 W/m2
22:18 -0.6 °F /  -18.1 °C -5.0 °F /  -20.6 °C 30.34in /  1027.3hPa WNW 8.1mph /  13km/h 8.1mph /  13km/h 81% 0.00in /  0mm 0.0 W/m2
22:20 -0.5 °F /  -18.1 °C -4.9 °F /  -20.5 °C 30.34in /  1027.3hPa West 10.4mph /  16.7km/h 10.4mph /  16.7km/h 81% 0.00in /  0mm 0.0 W/m2
22:25 -0.4 °F /  -18 °C -4.8 °F /  -20.4 °C 30.34in /  1027.3hPa WNW 9.2mph /  14.8km/h 9.2mph /  14.8km/h 81% 0.00in /  0mm 0.0 W/m2
22:28 -0.5 °F /  -18.1 °C -4.9 °F /  -20.5 °C 30.34in /  1027.3hPa West 9.2mph /  14.8km/h 9.2mph /  14.8km/h 81% 0.00in /  0mm 0.0 W/m2
22:32 -0.7 °F /  -18.2 °C -5.4 °F /  -20.8 °C 30.34in /  1027.3hPa WNW 8.1mph /  13km/h 8.1mph /  13km/h 80% 0.00in /  0mm 0.0 W/m2
22:37 -0.9 °F /  -18.3 °C -5.6 °F /  -20.9 °C 30.34in /  1027.3hPa WNW 9.2mph /  14.8km/h 9.2mph /  14.8km/h 80% 0.00in /  0mm 0.0 W/m2
22:39 -1.0 °F /  -18.3 °C -5.4 °F /  -20.8 °C 30.34in /  1027.3hPa West 9.0mph /  14.5km/h 9.0mph /  14.5km/h 81% 0.00in /  0mm 0.0 W/m2
22:42 -1.0 °F /  -18.3 °C -5.4 °F /  -20.8 °C 30.34in /  1027.3hPa WNW 9.2mph /  14.8km/h 9.2mph /  14.8km/h 81% 0.00in /  0mm 0.0 W/m2
22:45 -1.0 °F /  -18.3 °C -5.4 °F /  -20.8 °C 30.34in /  1027.3hPa WNW 8.1mph /  13km/h 8.1mph /  13km/h 81% 0.00in /  0mm 0.0 W/m2
22:47 -1.0 °F /  -18.3 °C -5.4 °F /  -20.8 °C 30.34in /  1027.3hPa WNW 8.1mph /  13km/h 8.1mph /  13km/h 81% 0.00in /  0mm 0.0 W/m2
22:52 -1.0 °F /  -18.3 °C -5.4 °F /  -20.8 °C 30.34in /  1027.3hPa WNW 9.2mph /  14.8km/h 9.2mph /  14.8km/h 81% 0.00in /  0mm 0.0 W/m2
22:54 -1.0 °F /  -18.3 °C -5.4 °F /  -20.8 °C 30.34in /  1027.3hPa WNW 9.2mph /  14.8km/h 9.2mph /  14.8km/h 81% 0.00in /  0mm 0.0 W/m2
22:59 -1.2 °F /  -18.4 °C -5.6 °F /  -20.9 °C 30.34in /  1027.3hPa WNW 6.9mph /  11.1km/h 6.9mph /  11.1km/h 81% 0.00in /  0mm 0.0 W/m2
23:02 -1.2 °F /  -18.4 °C -5.6 °F /  -20.9 °C 30.35in /  1027.7hPa West 8.1mph /  13km/h 8.1mph /  13km/h 81% 0.00in /  0mm 0.0 W/m2
23:03 -1.3 °F /  -18.5 °C -5.7 °F /  -20.9 °C 30.34in /  1027.3hPa WNW 9.2mph /  14.8km/h 9.2mph /  14.8km/h 81% 0.00in /  0mm 0.0 W/m2
23:08 -1.2 °F /  -18.4 °C -5.6 °F /  -20.9 °C 30.35in /  1027.7hPa NW 8.0mph /  12.9km/h 8.0mph /  12.9km/h 81% 0.00in /  0mm 0.0 W/m2
23:14 -1.1 °F /  -18.4 °C -5.5 °F /  -20.8 °C 30.35in /  1027.7hPa WNW 9.2mph /  14.8km/h 9.2mph /  14.8km/h 81% 0.00in /  0mm 0.0 W/m2
23:15 -1.1 °F /  -18.4 °C -5.5 °F /  -20.8 °C 30.35in /  1027.7hPa WNW 9.2mph /  14.8km/h 9.2mph /  14.8km/h 81% 0.00in /  0mm 0.0 W/m2
23:20 -1.2 °F /  -18.4 °C -5.6 °F /  -20.9 °C 30.34in /  1027.3hPa WNW 9.2mph /  14.8km/h 9.2mph /  14.8km/h 81% 0.00in /  0mm 0.0 W/m2
23:21 -1.2 °F /  -18.4 °C -5.6 °F /  -20.9 °C 30.34in /  1027.3hPa West 6.9mph /  11.1km/h 6.9mph /  11.1km/h 81% 0.00in /  0mm 0.0 W/m2
23:26 -1.2 °F /  -18.4 °C -5.6 °F /  -20.9 °C 30.34in /  1027.3hPa West 8.1mph /  13km/h 8.1mph /  13km/h 81% 0.00in /  0mm 0.0 W/m2
23:28 -1.2 °F /  -18.4 °C -5.6 °F /  -20.9 °C 30.34in /  1027.3hPa West 9.2mph /  14.8km/h 9.2mph /  14.8km/h 81% 0.00in /  0mm 0.0 W/m2
23:34 -1.2 °F /  -18.4 °C -5.6 °F /  -20.9 °C 30.34in /  1027.3hPa NW 11.5mph /  18.5km/h 11.5mph /  18.5km/h 81% 0.00in /  0mm 0.0 W/m2
23:39 -1.2 °F /  -18.4 °C -5.6 °F /  -20.9 °C 30.34in /  1027.3hPa WNW 9.2mph /  14.8km/h 9.2mph /  14.8km/h 81% 0.00in /  0mm 0.0 W/m2
23:43 -1.2 °F /  -18.4 °C -5.6 °F /  -20.9 °C 30.34in /  1027.3hPa WNW 8.1mph /  13km/h 8.1mph /  13km/h 81% 0.00in /  0mm 0.0 W/m2
23:48 -1.3 °F /  -18.5 °C -6.0 °F /  -21.1 °C 30.34in /  1027.3hPa WNW 8.1mph /  13km/h 8.1mph /  13km/h 80% 0.00in /  0mm 0.0 W/m2
23:53 -1.4 °F /  -18.6 °C -6.1 °F /  -21.2 °C 30.34in /  1027.3hPa WNW 5.8mph /  9.3km/h 5.8mph /  9.3km/h 80% 0.00in /  0mm 0.0 W/m2
23:55 -1.4 °F /  -18.6 °C -6.1 °F /  -21.2 °C 30.34in /  1027.3hPa WNW 6.9mph /  11.1km/h 6.9mph /  11.1km/h 80% 0.00in /  0mm 0.0 W/m2
23:56 -1.5 °F /  -18.6 °C -6.2 °F /  -21.2 °C 30.34in /  1027.3hPa NW 6.0mph /  9.7km/h 6.0mph /  9.7km/h 80% 0.00in /  0mm 0.0 W/m2
Bourbonnais, Illinois, USA
Compliments of Weather Underground - 4 mb